Home > Products > Valid Products > TAF

000
FTUS41 KOKX 020800 AAA
TAFSWF
TAF AMD
KSWF 020831Z 0209/0312 VRB03KT P6SM FEW020 SCT050 BKN080
      TEMPO 0209/0212 3SM BR SCT020
     FM021400 24007KT P6SM FEW020 SCT050
     FM021600 23009KT P6SM SCT050
     FM022300 25007KT P6SM SCT050 BKN150 PROB30 0301/0306 SHRA
      BKN050
      AMD NOT SKED=



000
FTUS41 KOKX 020800 AAA
TAFJFK
TAF AMD
KJFK 020831Z 0209/0312 VRB05KT P6SM FEW020 SCT080
      TEMPO 0210/0213 6SM BR SCT020
     FM021300 23007KT P6SM SCT060
     FM021600 21010KT P6SM SCT050
     FM021900 18014KT P6SM SCT050
     FM030200 23009KT P6SM SCT050 BKN150 PROB30 0303/0307 SHRA
      BKN050
     FM030700 28007KT P6SM SCT150=



000
FTUS41 KOKX 020800 AAA
TAFEWR
TAF AMD
KEWR 020831Z 0209/0312 23004KT P6SM SCT050 SCT150
      TEMPO 0209/0212 6SM BR SCT020
     FM021400 25007KT P6SM SCT060
     FM022000 23011G17KT P6SM SCT050
     FM030000 24008KT P6SM SCT050 BKN150 PROB30 0301/0306 SHRA
      BKN050
     FM030900 31006KT P6SM SCT150=



000
FTUS41 KOKX 020800 AAA
TAFISP
TAF AMD
KISP 020831Z 0209/0306 VRB05KT 5SM BR SCT008 SCT070
      TEMPO 0209/0213 3SM BR BKN008
     FM021400 23007KT P6SM FEW020 SCT040
     FM021800 19010G16KT P6SM SCT050=



000
FTUS41 KOKX 020800 AAA
TAFLGA
TAF AMD
KLGA 020831Z 0209/0306 21005KT P6SM SCT080
      TEMPO 0210/0212 6SM BR SCT020
     FM021400 24008KT P6SM SCT060
     FM021900 20012G18KT P6SM SCT050
     FM030100 22009KT P6SM SCT050 BKN150 PROB30 0302/0306 SHRA
      BKN050=



000
FTUS41 KOKX 020800 AAA
TAFGON
TAF AMD
KGON 020831Z 0209/0306 VRB03KT 4SM BR SCT008 SCT080 BKN100
      TEMPO 0209/0211 1SM BR BKN008
     FM021400 22006KT 6SM HZ SCT015 BKN025
     FM021700 21009G15KT P6SM FEW025 SCT050=



000
FTUS41 KOKX 020800 AAA
TAFBDR
TAF AMD
KBDR 020831Z 0209/0306 VRB03KT 6SM BR SCT070
      TEMPO 0209/0212 3SM BR SCT020
     FM021400 23005KT P6SM FEW020 SCT040
     FM021900 21009G15KT P6SM SCT050=



000
FTUS41 KOKX 020800 AAA
TAFTEB
TAF AMD
KTEB 020831Z 0209/0306 VRB03KT 6SM BR FEW020 SCT080
      TEMPO 0209/0212 5SM BR SCT020
     FM021400 23006KT P6SM FEW020 SCT050
     FM021900 21010KT P6SM SCT050
     FM030000 25006KT P6SM SCT050 BKN150 PROB30 0301/0306 SHRA
      BKN050=



000
FTUS41 KOKX 020500
TAFGON
TAF
KGON 020536Z 0206/0306 VRB03KT 4SM BR SCT008 SCT080 BKN100
      TEMPO 0208/0211 1SM BR BKN008
     FM021400 22006KT 6SM HZ SCT015 BKN025
     FM021700 21009G15KT P6SM FEW025 SCT050=



000
FTUS41 KOKX 020500
TAFBDR
TAF
KBDR 020536Z 0206/0306 22005KT P6SM FEW040 SCT100
     FM020800 VRB03KT 6SM BR SCT015 SCT040 BKN150
      TEMPO 0208/0212 3SM BR
     FM021400 23005KT P6SM FEW020 SCT040
     FM021900 21009G15KT P6SM SCT050=



000
FTUS41 KOKX 020500
TAFJFK
TAF
KJFK 020536Z 0206/0312 24005KT P6SM SCT070 SCT120
      TEMPO 0210/0213 6SM BR SCT020
     FM021300 23007KT P6SM FEW020 SCT060
     FM021600 21010KT P6SM SCT050
     FM021900 18015KT P6SM SCT050
     FM030100 23009KT P6SM SCT050 BKN150 PROB30 0303/0308 SHRA
      BKN050
     FM030800 28007KT P6SM SCT150=



000
FTUS41 KOKX 020500
TAFISP
TAF
KISP 020536Z 0206/0306 VRB05KT 5SM BR SCT008 SCT080
      TEMPO 0209/0213 3SM BR BKN008
     FM021400 23007KT P6SM FEW020 SCT040
     FM021800 19010G16KT P6SM SCT050=



000
FTUS41 KOKX 020500
TAFEWR
TAF
KEWR 020536Z 0206/0312 21005KT P6SM SCT070
     FM020800 23004KT P6SM SCT050 SCT150
      TEMPO 0209/0212 6SM BR SCT020
     FM021400 25007KT P6SM SCT060
     FM021800 23011G17KT P6SM SCT050
     FM030000 25007KT P6SM SCT050 BKN150 PROB30 0302/0307 SHRA
      BKN050
     FM030900 31006KT P6SM SCT150=



000
FTUS41 KOKX 020500
TAFTEB
TAF
KTEB 020536Z 0206/0306 VRB04KT P6SM FEW025 SCT050
     FM020800 VRB03KT 6SM BR FEW020 SCT050 SCT150
      TEMPO 0209/0212 5SM BR SCT020
     FM021400 24005KT P6SM FEW020 SCT050
     FM021800 21010KT P6SM SCT050
     FM030000 25006KT P6SM SCT050 BKN150 PROB30 0302/0306 SHRA
      BKN050=



000
FTUS41 KOKX 020500
TAFSWF
TAF
KSWF 020536Z 0206/0312 VRB03KT P6SM FEW020 SCT050 BKN080
      TEMPO 0209/0212 3SM BR SCT020
     FM021400 24007KT P6SM FEW020 SCT050
     FM021600 23009KT P6SM SCT050
     FM022300 25007KT P6SM SCT050 BKN150 PROB30 0301/0306 SHRA
      BKN050
      AMD NOT SKED=



000
FTUS41 KOKX 020500
TAFLGA
TAF
KLGA 020536Z 0206/0306 22005KT P6SM SCT050 SCT150
      TEMPO 0210/0212 6SM BR SCT020
     FM021400 24008KT P6SM SCT060
     FM021900 20012G18KT P6SM SCT050
     FM030100 22009KT P6SM SCT050 BKN150 PROB30 0302/0306 SHRA
      BKN050=



000
FTUS41 KOKX 020200 AAA
TAFSWF
TAF AMD
KSWF 020234Z 0203/0306 VRB03KT P6SM FEW020 SCT050 BKN150
     FM020800 VRB03KT 4SM BR SCT020 SCT050 BKN150
      TEMPO 0209/0212 2SM BR
     FM021400 24007KT P6SM FEW020 SCT050
     FM021600 23009KT P6SM SCT050
     FM022300 25007KT P6SM SCT050 BKN150 PROB30 0223/0305 SHRA
      BKN050
      AMD NOT SKED=



000
FTUS41 KOKX 020200 AAA
TAFBDR
TAF AMD
KBDR 020234Z 0203/0224 21005KT P6SM SCT040 BKN150
     FM020800 VRB03KT 6SM BR SCT015 SCT040 BKN150
      TEMPO 0208/0212 3SM BR
     FM021400 23005KT P6SM FEW020 SCT040
     FM021600 21008KT P6SM SCT050=



000
FTUS41 KOKX 020200 AAA
TAFGON
TAF AMD
KGON 020234Z 0203/0224 22004KT 6SM BR FEW015 SCT030 BKN150
     FM020600 VRB03KT 4SM BR SCT008 BKN015 BKN150
      TEMPO 0208/0211 1SM BR BKN008
     FM021400 23005KT 6SM HZ SCT015 BKN025
     FM021600 21008KT P6SM FEW025 SCT050=



000
FTUS41 KOKX 020200 AAA
TAFEWR
TAF AMD
KEWR 020234Z 0203/0306 21005KT P6SM SCT050
     FM020800 23004KT P6SM FEW020 SCT050 SCT150
      TEMPO 0209/0212 6SM BR SCT020
     FM021400 25007KT P6SM FEW020 SCT050
     FM021700 23012KT P6SM SCT050
     FM030000 25007KT P6SM SCT050 BKN150 PROB30 0300/0306 SHRA
      BKN050=



000
FTUS41 KOKX 020200 AAA
TAFJFK
TAF AMD
KJFK 020234Z 0203/0306 21007KT P6SM SCT050
     FM020700 24004KT P6SM FEW020 SCT050 SCT150
      TEMPO 0209/0212 6SM BR SCT020
     FM021400 23007KT P6SM FEW020 SCT050
     FM021600 18010KT P6SM SCT050
     FM021900 18015KT P6SM SCT050
     FM030000 23009KT P6SM SCT050 BKN150 PROB30 0300/0306 SHRA
      BKN050=



000
FTUS41 KOKX 020200 AAA
TAFISP
TAF AMD
KISP 020234Z 0203/0224 21006KT P6SM FEW015 SCT040 BKN150
     FM020700 VRB05KT 4SM BR SCT008 SCT015 BKN150
      TEMPO 0209/0213 2SM BR BKN008
     FM021400 23006KT P6SM FEW020 SCT040
     FM021800 20010KT P6SM SCT050=



000
FTUS41 KOKX 020200 AAA
TAFTEB
TAF AMD
KTEB 020234Z 0203/0224 VRB04KT P6SM FEW025 SCT050
     FM020800 VRB03KT 6SM BR FEW020 SCT050 SCT150
      TEMPO 0209/0212 5SM BR SCT020
     FM021400 23005KT P6SM FEW020 SCT050
     FM021700 21010KT P6SM SCT050=



000
FTUS41 KOKX 020200 AAA
TAFLGA
TAF AMD
KLGA 020234Z 0203/0224 21007KT P6SM SCT050
     FM020800 25004KT P6SM FEW020 SCT050 SCT150
      TEMPO 0209/0212 6SM BR SCT020
     FM021400 24010KT P6SM FEW020 SCT050
     FM022000 18012G18KT P6SM SCT050=



000
FTUS41 KOKX 012300
TAFISP
TAF
KISP 012334Z 0200/0224 20007KT P6SM SCT040 SCT080
     FM020300 21006KT P6SM FEW015 SCT040 BKN150
     FM020700 VRB03KT 5SM BR SCT008 SCT015 BKN150
      TEMPO 0209/0213 3SM BR BKN008
     FM021400 23006KT P6SM FEW020 SCT040
     FM021800 20010KT P6SM SCT050=



000
FTUS41 KOKX 012300
TAFTEB
TAF
KTEB 012334Z 0200/0224 VRB05KT P6SM SCT050 SCT080
     FM020300 VRB04KT P6SM FEW025 SCT050
     FM020800 VRB03KT 6SM BR FEW020 SCT050 SCT150
      TEMPO 0209/0212 5SM BR SCT020
     FM021400 23005KT P6SM FEW020 SCT050
     FM021700 21010KT P6SM SCT050=



000
FTUS41 KOKX 012300
TAFEWR
TAF
KEWR 012334Z 0200/0306 24007KT P6SM SCT050 SCT080
     FM020100 23005KT P6SM SCT050
     FM020800 24004KT P6SM FEW020 SCT050 SCT150
      TEMPO 0209/0212 6SM BR SCT020
     FM021400 25007KT P6SM FEW020 SCT050
     FM021700 23012KT P6SM SCT050
     FM030000 25007KT P6SM SCT050 BKN150 PROB30 0300/0306 SHRA
      BKN050=



000
FTUS41 KOKX 012300
TAFBDR
TAF
KBDR 012334Z 0200/0224 21008KT P6SM BKN050
     FM020100 21005KT P6SM SCT040 BKN150
     FM020800 VRB03KT 6SM BR SCT015 SCT040 BKN150
      TEMPO 0208/0212 3SM BR
     FM021400 23005KT P6SM FEW020 SCT040
     FM021600 21008KT P6SM SCT050=



000
FTUS41 KOKX 012300
TAFLGA
TAF
KLGA 012334Z 0200/0224 19009KT P6SM SCT050 SCT080
     FM020200 21007KT P6SM SCT050
     FM020800 25004KT P6SM FEW020 SCT050 SCT150
      TEMPO 0209/0212 6SM BR SCT020
     FM021400 24010KT P6SM FEW020 SCT050
     FM022000 18012G18KT P6SM SCT050=



000
FTUS41 KOKX 012300
TAFJFK
TAF
KJFK 012334Z 0200/0306 18011KT P6SM SCT050 SCT080
     FM020200 21007KT P6SM SCT050
     FM020700 24004KT P6SM FEW020 SCT050 SCT150
      TEMPO 0209/0212 6SM BR SCT020
     FM021400 23007KT P6SM FEW020 SCT050
     FM021600 18010KT P6SM SCT050
     FM021900 18015KT P6SM SCT050
     FM030000 23009KT P6SM SCT050 BKN150 PROB30 0300/0306 SHRA
      BKN050=



000
FTUS41 KOKX 012300
TAFSWF
TAF
KSWF 012334Z 0200/0306 VRB03KT P6SM FEW020 SCT050 BKN150
     FM020800 VRB03KT 4SM BR SCT020 SCT050 BKN150
      TEMPO 0209/0212 2SM BR
     FM021400 24007KT P6SM FEW020 SCT050
     FM021600 23009KT P6SM SCT050
     FM022300 25007KT P6SM SCT050 BKN150 PROB30 0223/0305 SHRA
      BKN050
      AMD NOT SKED=



000
FTUS41 KOKX 012300
TAFGON
TAF
KGON 012334Z 0200/0224 22007KT P6SM SCT040 SCT080
     FM020100 22004KT 6SM BR FEW015 SCT030 BKN150
     FM020600 VRB03KT 4SM BR SCT008 BKN015 BKN150
      TEMPO 0208/0211 2SM BR BKN008
     FM021400 23005KT 6SM HZ SCT015 BKN025
     FM021600 21008KT P6SM FEW025 SCT050=



000
FTUS41 KOKX 012200 AAC
TAFEWR
TAF AMD
KEWR 012254Z 0123/0224 23007KT P6SM BKN050
     FM020100 21005KT P6SM FEW025 SCT050 BKN150
     FM020500 24004KT 6SM BR SCT020 SCT050 BKN150
      TEMPO 0208/0211 4SM BR
     FM021400 23007KT P6SM FEW020 SCT050
     FM021600 21010KT P6SM SCT050
     FM021900 20014KT P6SM SCT050=



000
FTUS41 KOKX 012100 AAC
TAFJFK
TAF AMD
KJFK 012133Z 0122/0224 18010KT P6SM SCT050 BKN080
     FM020100 21007KT P6SM FEW025 SCT050 BKN150
     FM020500 24004KT 6SM BR SCT020 SCT050 BKN150
      TEMPO 0208/0211 4SM BR
     FM021400 23007KT P6SM FEW020 SCT050
     FM021600 18010KT P6SM SCT050
     FM021900 18015KT P6SM SCT050=



000
FTUS41 KOKX 012000 AAB
TAFEWR
TAF AMD
KEWR 012025Z 0120/0224 16007KT P6SM BKN050
      TEMPO 0121/0123 21007KT
     FM020100 21005KT P6SM FEW025 SCT050 BKN150
     FM020500 24004KT 6SM BR SCT020 SCT050 BKN150
      TEMPO 0208/0211 4SM BR
     FM021400 23007KT P6SM FEW020 SCT050
     FM021600 21010KT P6SM SCT050
     FM021900 20014KT P6SM SCT050=



000
FTUS41 KOKX 012000 AAB
TAFSWF
TAF AMD
KSWF 012025Z 0120/0224 23008KT P6SM SCT025 BKN050
      TEMPO 0121/0122 SHRA BKN025
     FM020100 VRB03KT 6SM BR SCT020 SCT050 BKN150
     FM020500 VRB03KT 4SM BR SCT020 SCT050 BKN150
      TEMPO 0208/0211 2SM BR
     FM021400 24007KT P6SM FEW020 SCT050
     FM021600 23009KT P6SM SCT050
      AMD NOT SKED=



000
FTUS41 KOKX 012000 AAB
TAFTEB
TAF AMD
KTEB 012025Z 0120/0218 18008KT P6SM BKN050 BKN080
     FM020100 VRB04KT P6SM FEW025 SCT050 BKN150
     FM020500 VRB03KT 4SM BR SCT020 SCT050 BKN150
     FM021400 23005KT P6SM FEW020 SCT050=



000
FTUS41 KOKX 012000 AAB
TAFISP
TAF AMD
KISP 012025Z 0120/0218 20009KT P6SM FEW025 SCT040 SCT080
     FM020100 21006KT P6SM SCT015 SCT040 BKN150
     FM020500 24003KT 5SM BR SCT015 SCT040 BKN150
      TEMPO 0208/0211 3SM BR BKN015
     FM021400 23006KT P6SM FEW020 SCT040
     FM021700 20009KT P6SM SCT050=



000
FTUS41 KOKX 012000 AAB
TAFGON
TAF AMD
KGON 012025Z 0120/0218 22007KT P6SM SCT040 SCT080
     FM020100 22004KT 5SM BR FEW010 BKN030 BKN150
     FM020400 VRB03KT 3SM BR SCT010 BKN020 BKN150
      TEMPO 0208/0211 1SM BR BKN010
     FM021400 23005KT 6SM HZ SCT012 SCT040
      TEMPO 0214/0216 BKN012
     FM021600 21008KT P6SM FEW025 SCT050=



000
FTUS41 KOKX 012000 AAB
TAFLGA
TAF AMD
KLGA 012025Z 0120/0218 19009KT P6SM SCT050 BKN080
     FM020100 21007KT P6SM FEW025 SCT050 BKN150
     FM020500 25004KT 6SM BR SCT020 SCT050 BKN150
      TEMPO 0208/0211 4SM BR
     FM021400 24006KT P6SM FEW020 SCT050
     FM021700 18008KT P6SM SCT050=



000
FTUS41 KOKX 012000 AAB
TAFJFK
TAF AMD
KJFK 012025Z 0120/0224 18010KT P6SM SCT050 BKN080
      TEMPO 0121/0122 -TSRA BKN050CB
     FM020100 21007KT P6SM FEW025 SCT050 BKN150
     FM020500 24004KT 6SM BR SCT020 SCT050 BKN150
      TEMPO 0208/0211 4SM BR
     FM021400 23007KT P6SM FEW020 SCT050
     FM021600 18010KT P6SM SCT050
     FM021900 18015KT P6SM SCT050=



000
FTUS41 KOKX 012000 AAB
TAFBDR
TAF AMD
KBDR 012025Z 0120/0218 21008KT P6SM BKN050
     FM020100 21005KT P6SM FEW020 SCT040 BKN150
     FM020500 VRB03KT 5SM BR SCT015 SCT040 BKN150
      TEMPO 0208/0211 3SM BR BKN015
     FM021400 23005KT P6SM FEW020 SCT040
     FM021600 21008KT P6SM SCT050=



000
FTUS41 KOKX 011900 AAA
TAFJFK
TAF AMD
KJFK 011904Z 0119/0224 18010KT P6SM SCT050 BKN080
      TEMPO 0119/0122 SHRA BKN050
     FM020100 21007KT P6SM FEW025 SCT050 BKN150
     FM020500 24004KT 6SM BR SCT020 SCT050 BKN150
      TEMPO 0208/0211 4SM BR
     FM021400 23007KT P6SM FEW020 SCT050
     FM021600 18010KT P6SM SCT050
     FM021900 18015KT P6SM SCT050=



000
FTUS41 KOKX 011900 AAA
TAFEWR
TAF AMD
KEWR 011904Z 0119/0224 22007KT P6SM SCT050 BKN080
      TEMPO 0119/0122 SHRA BKN050
     FM020100 21005KT P6SM FEW025 SCT050 BKN150
     FM020500 24004KT 6SM BR SCT020 SCT050 BKN150
      TEMPO 0208/0211 4SM BR
     FM021400 23007KT P6SM FEW020 SCT050
     FM021600 21010KT P6SM SCT050
     FM021900 20014KT P6SM SCT050=



000
FTUS41 KOKX 011900 AAA
TAFLGA
TAF AMD
KLGA 011904Z 0119/0218 20010KT P6SM SCT050 BKN080
      TEMPO 0119/0122 SHRA BKN050
     FM020100 21007KT P6SM FEW025 SCT050 BKN150
     FM020500 25004KT 6SM BR SCT020 SCT050 BKN150
      TEMPO 0208/0211 4SM BR
     FM021400 24006KT P6SM FEW020 SCT050
     FM021700 18008KT P6SM SCT050=



000
FTUS41 KOKX 011900 AAA
TAFTEB
TAF AMD
KTEB 011904Z 0119/0218 19008KT P6SM SCT050 BKN080
      TEMPO 0119/0122 SHRA BKN050
     FM020100 VRB04KT P6SM FEW025 SCT050 BKN150
     FM020500 VRB03KT 4SM BR SCT020 SCT050 BKN150
     FM021400 23005KT P6SM FEW020 SCT050=



000
FTUS41 KOKX 011900 AAA
TAFISP
TAF AMD
KISP 011904Z 0119/0218 20009KT P6SM FEW025 SCT040 BKN080
      TEMPO 0119/0122 SHRA FEW025 BKN040 BKN080
     FM020100 21006KT P6SM SCT015 SCT040 BKN150
     FM020500 24003KT 5SM BR SCT015 SCT040 BKN150
      TEMPO 0208/0211 3SM BR BKN015
     FM021400 23006KT P6SM FEW020 SCT040
     FM021700 20009KT P6SM SCT050=



000
FTUS41 KOKX 011900 AAA
TAFSWF
TAF AMD
KSWF 011904Z 0119/0224 23008KT P6SM SCT025 BKN050
      TEMPO 0119/0122 SHRA BKN025
     FM020100 VRB03KT 6SM BR SCT020 SCT050 BKN150
     FM020500 VRB03KT 4SM BR SCT020 SCT050 BKN150
      TEMPO 0208/0211 2SM BR
     FM021400 24007KT P6SM FEW020 SCT050
     FM021600 23009KT P6SM SCT050
      AMD NOT SKED=



000
FTUS41 KOKX 011900 AAA
TAFBDR
TAF AMD
KBDR 011904Z 0119/0218 21008KT P6SM SCT040 BKN080
      TEMPO 0119/0122 SHRA BKN040
     FM020100 21005KT P6SM FEW020 SCT040 BKN150
     FM020500 VRB03KT 5SM BR SCT015 SCT040 BKN150
      TEMPO 0208/0211 3SM BR BKN015
     FM021400 23005KT P6SM FEW020 SCT040
     FM021600 21008KT P6SM SCT050=



000
FTUS41 KOKX 011900 AAA
TAFGON
TAF AMD
KGON 011904Z 0119/0218 22007KT P6SM SCT040 SCT080
      TEMPO 0119/0122 SHRA BKN040 BKN080
     FM020100 22004KT 5SM BR FEW010 BKN030 BKN150
     FM020400 VRB03KT 3SM BR SCT010 BKN020 BKN150
      TEMPO 0208/0211 1SM BR BKN010
     FM021400 23005KT 6SM HZ SCT012 SCT040
      TEMPO 0214/0216 BKN012
     FM021600 21008KT P6SM FEW025 SCT050=



000
FTUS41 KOKX 011700
TAFISP
TAF
KISP 011732Z 0118/0218 20008KT P6SM FEW020 BKN040
      TEMPO 0118/0121 SHRA
     FM020100 21006KT P6SM SCT015 SCT040 BKN150
     FM020500 24003KT 5SM BR SCT015 SCT040 BKN150
      TEMPO 0208/0211 3SM BR BKN015
     FM021400 23006KT P6SM FEW020 SCT040
     FM021700 20009KT P6SM SCT050=



000
FTUS41 KOKX 011700
TAFSWF
TAF
KSWF 011732Z 0118/0224 23009KT P6SM SCT020 BKN050
      TEMPO 0118/0121 SHRA BKN020
     FM020100 VRB03KT 6SM BR SCT020 SCT050 BKN150
     FM020500 VRB03KT 4SM BR SCT020 SCT050 BKN150
      TEMPO 0208/0211 2SM BR
     FM021400 24007KT P6SM FEW020 SCT050
     FM021600 23009KT P6SM SCT050
      AMD NOT SKED=



000
FTUS41 KOKX 011700
TAFJFK
TAF
KJFK 011732Z 0118/0224 18010KT P6SM SCT025 BKN050
      TEMPO 0118/0121 SHRA
     FM020100 21007KT P6SM SCT025 SCT050 BKN150
     FM020500 24004KT 6SM BR SCT020 SCT050 BKN150
      TEMPO 0208/0211 4SM BR
     FM021400 23007KT P6SM FEW020 SCT050
     FM021600 18010KT P6SM SCT050
     FM021900 18015KT P6SM SCT050=



000
FTUS41 KOKX 011700
TAFLGA
TAF
KLGA 011732Z 0118/0218 18010KT P6SM FEW030 BKN050
      TEMPO 0118/0121 SHRA
     FM020100 21007KT P6SM SCT025 SCT050 BKN150
     FM020500 25004KT 6SM BR SCT020 SCT050 BKN150
      TEMPO 0208/0211 4SM BR
     FM021400 24006KT P6SM FEW020 SCT050
     FM021700 18008KT P6SM SCT050=



000
FTUS41 KOKX 011700
TAFEWR
TAF
KEWR 011732Z 0118/0224 20008KT P6SM FEW030 BKN050
      TEMPO 0118/0121 SHRA
     FM020100 21005KT P6SM SCT025 SCT050 BKN150
     FM020500 24004KT 6SM BR SCT020 SCT050 BKN150
      TEMPO 0208/0211 4SM BR
     FM021400 23007KT P6SM FEW020 SCT050
     FM021600 21010KT P6SM SCT050
     FM021900 20014KT P6SM SCT050=



000
FTUS41 KOKX 011700
TAFBDR
TAF
KBDR 011732Z 0118/0218 21008KT P6SM SCT015 BKN040
      TEMPO 0118/0121 SHRA
     FM020100 21005KT P6SM SCT015 SCT040 BKN150
     FM020500 VRB03KT 5SM BR SCT015 SCT040 BKN150
      TEMPO 0208/0211 3SM BR BKN015
     FM021400 23005KT P6SM FEW020 SCT040
     FM021600 21008KT P6SM SCT050=



000
FTUS41 KOKX 011700
TAFTEB
TAF
KTEB 011732Z 0118/0218 19009KT P6SM FEW030 BKN050
      TEMPO 0118/0121 SHRA
     FM020100 VRB04KT P6SM SCT025 SCT050 BKN150
     FM020500 VRB03KT 4SM BR SCT020 SCT050 BKN150
     FM021400 23005KT P6SM FEW020 SCT050=



000
FTUS41 KOKX 011700
TAFGON
TAF
KGON 011732Z 0118/0218 22008KT P6SM SCT015 SCT050
      TEMPO 0118/0121 SHRA
     FM020100 22004KT 5SM BR SCT010 BKN030 BKN150
     FM020400 VRB03KT 3SM BR SCT010 BKN020 BKN150
      TEMPO 0208/0211 1SM BR BKN010
     FM021400 23005KT 6SM HZ SCT012 SCT040
      TEMPO 0214/0216 BKN012
     FM021600 21008KT P6SM FEW025 SCT050=



000
FTUS41 KOKX 011500 AAB
TAFGON
TAF AMD
KGON 011509Z 0115/0212 23008KT 6SM HZ SCT015 BKN035
      TEMPO 0115/0117 BKN015
     FM011700 23008KT 6SM HZ SCT015 BKN040
      TEMPO 0117/0121 SHRA BKN015
     FM020300 23003KT 5SM BR SCT015 BKN025=



000
FTUS41 KOKX 011500 AAB
TAFSWF
TAF AMD
KSWF 011507Z 0115/0218 23005KT P6SM SCT020 BKN040
      TEMPO 0117/0121 SHRA BKN020
     FM020000 VRB03KT 6SM BR SCT025 SCT040
     FM021500 24005KT P6SM SCT050
      AMD NOT SKED=



000
FTUS41 KOKX 011500 AAB
TAFBDR
TAF AMD
KBDR 011506Z 0115/0212 21008KT P6SM FEW012 SCT040
      TEMPO 0117/0121 SHRA SCT012 BKN040
     FM020100 VRB03KT P6SM SCT020 SCT040
     FM020700 VRB03KT 4SM BR SCT020 SCT040=



000
FTUS41 KOKX 011500 AAC
TAFISP
TAF AMD
KISP 011505Z 0115/0212 23004KT P6SM SCT015 BKN040
      TEMPO 0115/0117 BKN015
     FM011700 21008KT P6SM SCT020 BKN040
      TEMPO 0117/0121 SHRA BKN020
     FM020100 VRB03KT P6SM SCT025 SCT040
     FM020700 VRB03KT 4SM BR SCT020 SCT040=



000
FTUS41 KOKX 011500 AAB
TAFEWR
TAF AMD
KEWR 011502Z 0115/0218 VRB04KT P6SM SCT030 BKN040
     FM011600 21007KT P6SM SCT030 BKN040
      TEMPO 0117/0121 SHRA
     FM020100 21005KT 6SM BR SCT025 SCT040
     FM020700 VRB03KT 6SM BR SCT020 SCT040=



000
FTUS41 KOKX 011500 AAB
TAFTEB
TAF AMD
KTEB 011501Z 0115/0212 VRB04KT P6SM SCT030 SCT040
      TEMPO 0115/0117 BKN030 BKN040
     FM011700 21006KT P6SM SCT030 BKN040
      TEMPO 0117/0121 SHRA
     FM020100 VRB05KT P6SM SCT025 SCT040
     FM020700 VRB03KT 4SM BR SCT020 SCT040=



000
FTUS41 KOKX 011400 AAB
TAFJFK
TAF AMD
KJFK 011456Z 0115/0218 19006KT P6SM SCT008 SCT040
     FM011600 18010KT P6SM FEW010 SCT025 BKN040
      TEMPO 0117/0121 SHRA
     FM020100 21007KT 6SM BR SCT025 SCT040
     FM020700 VRB03KT 6SM BR SCT020 SCT040
     FM021500 23007KT P6SM SCT050=



000
FTUS41 KOKX 011300 AAA
TAFJFK
TAF AMD
KJFK 011336Z 0114/0218 21006KT P6SM SCT015 BKN060
     FM011600 18010KT P6SM SCT025 BKN040
      TEMPO 0116/0120 SHRA
     FM020100 21007KT 6SM BR SCT025 SCT040
     FM020700 VRB03KT 6SM BR SCT020 SCT040
     FM021500 23007KT P6SM SCT050=



000
FTUS41 KOKX 011300 AAA
TAFTEB
TAF AMD
KTEB 011336Z 0114/0212 VRB04KT P6SM SCT015 BKN060
     FM011600 21006KT P6SM SCT025 BKN040
      TEMPO 0116/0120 SHRA
     FM020100 VRB05KT P6SM SCT025 SCT040
     FM020700 VRB03KT 4SM BR SCT020 SCT040=



000
FTUS41 KOKX 011300 AAA
TAFSWF
TAF AMD
KSWF 011336Z 0114/0218 VRB04KT P6SM SCT015 SCT060
     FM011600 23006KT P6SM SCT020 BKN040
      TEMPO 0116/0120 SHRA
     FM020000 VRB03KT 6SM BR SCT025 SCT040
     FM021500 24005KT P6SM SCT050
      AMD NOT SKED=



000
FTUS41 KOKX 011300 AAA
TAFEWR
TAF AMD
KEWR 011336Z 0114/0218 26005KT P6SM SCT015 BKN060
     FM011600 22007KT P6SM SCT025 BKN040
      TEMPO 0116/0120 SHRA
     FM020100 21005KT 6SM BR SCT025 SCT040
     FM020700 VRB03KT 6SM BR SCT020 SCT040=



000
FTUS41 KOKX 011300 AAB
TAFISP
TAF AMD
KISP 011336Z 0114/0212 23004KT P6SM SCT008 BKN060
      TEMPO 0114/0116 BKN008
     FM011600 22007KT P6SM SCT020 BKN040
      TEMPO 0116/0120 SHRA
     FM020100 VRB03KT P6SM SCT025 SCT040
     FM020700 VRB03KT 4SM BR SCT020 SCT040=



000
FTUS41 KOKX 011300 AAA
TAFLGA
TAF AMD
KLGA 011336Z 0114/0212 26006KT P6SM SCT015 BKN060
     FM011600 20006KT P6SM SCT025 BKN040
      TEMPO 0116/0118 SHRA
     FM011800 18009KT P6SM SCT030 BKN040
      TEMPO 0118/0120 SHRA
     FM020100 21007KT 6SM BR SCT025 SCT040
     FM020500 VRB03KT 6SM BR SCT020 SCT040=



000
FTUS41 KOKX 011300 AAA
TAFGON
TAF AMD
KGON 011336Z 0114/0212 23005KT 6SM HZ SCT007 BKN015
     FM011600 23007KT 6SM HZ SCT015 BKN035
      TEMPO 0116/0120 SHRA
     FM020300 23003KT 5SM BR SCT015 BKN025=



000
FTUS41 KOKX 011300 AAA
TAFBDR
TAF AMD
KBDR 011336Z 0114/0212 22007KT 6SM BR FEW010 SCT060
     FM011600 22008KT P6SM SCT020 BKN040
      TEMPO 0116/0120 SHRA
     FM020100 VRB03KT P6SM SCT025 SCT040
     FM020700 VRB03KT 4SM BR SCT020 SCT040=



000
FTUS41 KOKX 011200 AAA
TAFISP
TAF AMD
KISP 011233Z 0113/0212 24004KT P6SM SCT008 BKN060
      TEMPO 0113/0114 BKN008
     FM011700 23006KT P6SM SCT020 BKN040
     FM020100 VRB03KT P6SM SCT025 SCT040
     FM020700 VRB03KT 4SM BR SCT020 SCT040=



000
FTUS41 KOKX 011100
TAFBDR
TAF
KBDR 011131Z 0112/0212 24004KT 6SM BR SCT009 BKN050
     FM011700 23006KT P6SM SCT020 BKN040
     FM020100 VRB03KT P6SM SCT025 SCT040
     FM020700 VRB03KT 4SM BR SCT020 SCT040=



000
FTUS41 KOKX 011100
TAFJFK
TAF
KJFK 011131Z 0112/0218 25006KT P6SM SCT015 BKN060
     FM011600 18008KT P6SM SCT025 BKN040
      TEMPO 0118/0122 -SHRA
     FM020100 21007KT 6SM BR SCT025 SCT040
     FM020700 VRB03KT 6SM BR SCT020 SCT040
     FM021500 23007KT P6SM SCT050=



000
FTUS41 KOKX 011100
TAFEWR
TAF
KEWR 011131Z 0112/0218 26006KT P6SM SCT020 BKN060
     FM011600 22007KT P6SM SCT025 BKN040
      TEMPO 0118/0122 -SHRA
     FM020100 21005KT 6SM BR SCT025 SCT040
     FM020700 VRB03KT 6SM BR SCT020 SCT040=



000
FTUS41 KOKX 011100
TAFSWF
TAF
KSWF 011131Z 0112/0218 VRB04KT 5SM BR SCT005 BKN060
     FM011600 23005KT 6SM BR SCT020 BKN040
      TEMPO 0116/0120 SHRA
     FM020000 VRB03KT 6SM BR SCT025 SCT040
     FM021500 24005KT P6SM SCT050
      AMD NOT SKED=



000
FTUS41 KOKX 011100
TAFLGA
TAF
KLGA 011131Z 0112/0212 26006KT P6SM SCT015 BKN060
     FM011600 20006KT P6SM SCT025 BKN040
      TEMPO 0118/0122 -SHRA
     FM020100 21007KT 6SM BR SCT025 SCT040
     FM020500 VRB03KT 6SM BR SCT020 SCT040=



000
FTUS41 KOKX 011100
TAFISP
TAF
KISP 011131Z 0112/0212 24004KT P6SM SCT015 BKN050
     FM011700 23006KT P6SM SCT020 BKN040
     FM020100 VRB03KT P6SM SCT025 SCT040
     FM020700 VRB03KT 4SM BR SCT020 SCT040=



000
FTUS41 KOKX 011100
TAFTEB
TAF
KTEB 011131Z 0112/0212 VRB04KT P6SM SCT020 BKN060
     FM011600 20005KT P6SM SCT025 BKN040
      TEMPO 0118/0122 -SHRA
     FM020100 VRB05KT P6SM SCT025 SCT040
     FM020700 VRB03KT 4SM BR SCT020 SCT040=



000
FTUS41 KOKX 011100
TAFGON
TAF
KGON 011131Z 0112/0212 24004KT 6SM BR BKN010
     FM011500 24005KT 3SM BR SCT007 BKN015
     FM011800 23006KT 6SM HZ SCT015 BKN035
     FM020300 23003KT 5SM BR SCT015 BKN025=



000
FTUS41 KOKX 010800 AAA
TAFEWR
TAF AMD
KEWR 010832Z 0109/0212 26006KT 6SM BR VCSH SCT020 BKN030
      TEMPO 0109/0112 4SM BR BKN020
     FM011600 22007KT P6SM SCT025 BKN040 PROB30 0118/0122 5SM SHRA
      BKN025
     FM020100 21005KT P6SM SCT025 SCT040=



000
FTUS41 KOKX 010800 AAA
TAFSWF
TAF AMD
KSWF 010832Z 0109/0212 VRB04KT 6SM BR FEW020 BKN040
      TEMPO 0109/0112 2SM BR BKN015
     FM011600 23005KT 6SM SHRA BR SCT020 BKN040
     FM020000 VRB03KT 6SM BR SCT025 SCT040
      AMD NOT SKED=



000
FTUS41 KOKX 010800 AAA
TAFTEB
TAF AMD
KTEB 010832Z 0109/0206 VRB04KT 4SM BR SCT015 BKN025
      TEMPO 0109/0112 2SM BR BKN015
     FM011600 20005KT P6SM SCT025 BKN040 PROB30 0118/0122 5SM SHRA
      BKN025
     FM020100 VRB05KT P6SM SCT025 SCT040=



000
FTUS41 KOKX 010800 AAA
TAFISP
TAF AMD
KISP 010832Z 0109/0206 24004KT 4SM -SHRA BR SCT015 BKN025
      TEMPO 0109/0113 2SM BR BKN015
     FM011300 24004KT 4SM BR BKN015 BKN025
     FM011700 23006KT P6SM SCT020 BKN035=



000
FTUS41 KOKX 010800 AAA
TAFLGA
TAF AMD
KLGA 010832Z 0109/0206 26006KT 6SM BR VCSH SCT015 BKN030
      TEMPO 0109/0112 5SM BR BKN015
     FM011600 20006KT P6SM SCT025 BKN040 PROB30 0118/0122 5SM SHRA
      BKN025
     FM020100 23007KT P6SM SCT025 SCT040=



000
FTUS41 KOKX 010800 AAA
TAFBDR
TAF AMD
KBDR 010832Z 0109/0206 24004KT 4SM BR SCT009 BKN025
      TEMPO 0109/0113 2SM BR BKN015
     FM011300 24004KT 4SM BR BKN015 BKN025
     FM011700 23006KT P6SM SCT020 BKN035=



000
FTUS41 KOKX 010800 AAA
TAFJFK
TAF AMD
KJFK 010832Z 0109/0212 25006KT 6SM BR VCSH SCT015 BKN030
      TEMPO 0109/0112 5SM BR BKN015
     FM011600 18008KT P6SM SCT025 BKN040 PROB30 0118/0122 5SM SHRA
      BKN025
     FM020100 21007KT P6SM SCT025 SCT040=



000
FTUS41 KOKX 010800 AAA
TAFGON
TAF AMD
KGON 010832Z 0109/0206 22004KT 6SM BR SCT010 BKN030
      TEMPO 0109/0113 1SM BR BKN010
     FM011500 24004KT 3SM BR SCT007 BKN015
     FM011800 23006KT 6SM HZ SCT015 BKN035
     FM020300 23003KT 5SM BR SCT015 BKN025=



000
FTUS41 KOKX 010500
TAFLGA
TAF
KLGA 010524Z 0106/0206 23007KT 6SM BR VCSH SCT020 BKN040
     FM010800 26006KT 6SM BR SCT015 BKN030
      TEMPO 0109/0112 5SM BR BKN015
     FM011600 20006KT P6SM SCT025 BKN040 PROB30 0118/0122 5SM SHRA
      BKN025
     FM020100 23007KT P6SM SCT025 SCT040=



000
FTUS41 KOKX 010500
TAFJFK
TAF
KJFK 010524Z 0106/0212 24006KT 6SM BR VCSH SCT020 BKN040
      TEMPO 0106/0108 SHRA
     FM010800 25006KT 6SM BR VCSH SCT015 BKN030
      TEMPO 0109/0112 5SM BR BKN015
     FM011600 18008KT P6SM SCT025 BKN040 PROB30 0118/0122 5SM SHRA
      BKN025
     FM020100 21007KT P6SM SCT025 SCT040=



000
FTUS41 KOKX 010500
TAFSWF
TAF
KSWF 010524Z 0106/0212 VRB04KT 6SM BR FEW020 BKN040
      TEMPO 0108/0112 2SM BR BKN015
     FM011600 23005KT 6SM HZ SCT020 BKN040 PROB30 0116/0122 5SM SHRA
      BKN020
     FM020000 VRB03KT 6SM BR SCT025 SCT040
      AMD NOT SKED=



000
FTUS41 KOKX 010500
TAFBDR
TAF
KBDR 010524Z 0106/0206 23005KT 6SM BR VCSH SCT009 BKN040
     FM010800 24004KT 4SM BR SCT009 BKN025
      TEMPO 0109/0113 2SM BR BKN015
     FM011300 24004KT 4SM BR BKN015 BKN025
     FM011700 23006KT P6SM SCT020 BKN035=



000
FTUS41 KOKX 010500
TAFEWR
TAF
KEWR 010524Z 0106/0212 25006KT 6SM BR VCSH SCT020 BKN040
      TEMPO 0106/0108 SHRA
     FM010800 26006KT 6SM BR SCT020 BKN030
      TEMPO 0109/0112 4SM BR BKN020
     FM011600 22007KT P6SM SCT025 BKN040 PROB30 0118/0122 5SM SHRA
      BKN025
     FM020100 21005KT P6SM SCT025 SCT040=



000
FTUS41 KOKX 010500
TAFISP
TAF
KISP 010524Z 0106/0206 22007KT 5SM BR VCSH SCT020 BKN040
      TEMPO 0106/0108 SHRA
     FM010800 24004KT 4SM -SHRA BR SCT015 BKN025
      TEMPO 0109/0113 2SM BR BKN015
     FM011300 24004KT 4SM BR BKN015 BKN025
     FM011700 23006KT P6SM SCT020 BKN035=



000
FTUS41 KOKX 010500
TAFTEB
TAF
KTEB 010524Z 0106/0206 VRB05KT 6SM BR VCSH SCT020 BKN040
     FM010800 VRB04KT 4SM BR SCT015 BKN025
      TEMPO 0109/0112 2SM BR BKN015
     FM011600 20005KT P6SM SCT025 BKN040 PROB30 0118/0122 5SM SHRA
      BKN025
     FM020100 VRB05KT P6SM SCT025 SCT040=



000
FTUS41 KOKX 010500
TAFGON
TAF
KGON 010524Z 0106/0206 22004KT 6SM BR SCT010 BKN030
      TEMPO 0109/0113 1SM BR BKN010
     FM011500 24004KT 3SM BR SCT007 BKN015
     FM011800 23006KT 6SM HZ SCT015 BKN035
     FM020300 23003KT 5SM BR SCT015 BKN025=



000
FTUS41 KOKX 010200 AAA
TAFGON
TAF AMD
KGON 010243Z 0103/0124 20005KT 4SM BR VCSH SCT007 BKN040
      TEMPO 0103/0106 BKN007
     FM010600 22004KT 4SM BR VCSH BKN007 OVC012
      TEMPO 0109/0113 1SM BR
     FM011500 24004KT 3SM BR SCT007 BKN015
     FM011800 23006KT 6SM HZ SCT015 BKN035=



000
FTUS41 KOKX 010200 AAA
TAFBDR
TAF AMD
KBDR 010243Z 0103/0124 22005KT 6SM BR VCSH SCT009 BKN040
     FM010800 24004KT 4SM BR SCT009 BKN025
      TEMPO 0109/0113 2SM BR BKN015
     FM011300 24004KT 4SM BR BKN015 BKN025
     FM011700 23006KT P6SM SCT020 BKN035=



000
FTUS41 KOKX 010200 AAA
TAFSWF
TAF AMD
KSWF 010243Z 0103/0206 VRB04KT 6SM BR FEW020 BKN040
      TEMPO 0108/0112 2SM BR BKN015
     FM011600 23005KT 6SM HZ SCT020 BKN040 PROB30 0116/0122 5SM SHRA
      BKN020
     FM020000 VRB03KT 6SM BR SCT025 SCT040
      AMD NOT SKED=



000
FTUS41 KOKX 010200 AAA
TAFTEB
TAF AMD
KTEB 010243Z 0103/0124 VRB05KT 6SM BR VCSH SCT020 BKN040
     FM010800 VRB04KT 4SM BR SCT015 BKN025
      TEMPO 0109/0112 2SM BR BKN015
     FM011600 20005KT P6SM SCT025 BKN040 PROB30 0118/0122 5SM SHRA
      BKN025=



000
FTUS41 KOKX 010200 AAA
TAFISP
TAF AMD
KISP 010243Z 0103/0124 22007KT 5SM BR VCSH SCT020 BKN040
      TEMPO 0106/0108 SHRA
     FM010800 24004KT 4SM -SHRA BR SCT015 BKN025
      TEMPO 0109/0113 2SM BR BKN015
     FM011300 24004KT 4SM BR BKN015 BKN025
     FM011700 23006KT P6SM SCT020 BKN035=



000
FTUS41 KOKX 010200 AAA
TAFEWR
TAF AMD
KEWR 010243Z 0103/0206 25006KT 6SM BR VCSH SCT020 BKN040
      TEMPO 0105/0108 SHRA
     FM010800 26006KT 6SM BR SCT020 BKN030
      TEMPO 0109/0112 4SM BR BKN020
     FM011600 22007KT P6SM SCT025 BKN040 PROB30 0118/0122 5SM SHRA
      BKN025
     FM020100 21005KT P6SM SCT025 SCT040=



000
FTUS41 KOKX 010200 AAA
TAFJFK
TAF AMD
KJFK 010243Z 0103/0206 20006KT 6SM BR VCSH SCT020 BKN040
      TEMPO 0105/0108 SHRA
     FM010800 25006KT 6SM BR VCSH SCT015 BKN030
      TEMPO 0109/0112 5SM BR BKN015
     FM011600 18008KT P6SM SCT025 BKN040 PROB30 0118/0122 5SM SHRA
      BKN025
     FM020100 21007KT P6SM SCT025 SCT040=



000
FTUS41 KOKX 010200 AAA
TAFLGA
TAF AMD
KLGA 010243Z 0103/0124 23007KT 6SM BR VCSH SCT020 BKN040
     FM010800 26006KT 6SM BR SCT015 BKN030
      TEMPO 0109/0112 5SM BR BKN015
     FM011600 20006KT P6SM SCT025 BKN040 PROB30 0118/0122 5SM SHRA
      BKN025=



000
FTUS41 KOKX 312300
TAFSWF
TAF
KSWF 312324Z 0100/0206 VRB04KT 6SM BR FEW020 BKN040
      TEMPO 0108/0112 2SM BR BKN015
     FM011600 23005KT 6SM HZ SCT020 BKN040 PROB30 0116/0122 5SM SHRA
      BKN020
     FM020000 VRB03KT 6SM BR SCT025 SCT040
      AMD NOT SKED=



000
FTUS41 KOKX 312300
TAFISP
TAF
KISP 312324Z 0100/0124 21006KT P6SM SCT020 BKN040 BKN120
     FM010200 22005KT 5SM BR VCSH SCT020 BKN040
     FM010800 24004KT 4SM BR VCSH SCT015 BKN025
      TEMPO 0109/0113 2SM BR BKN015
     FM011300 24004KT 4SM BR BKN015 BKN025
     FM011700 23006KT P6SM SCT020 BKN035=



000
FTUS41 KOKX 312300
TAFBDR
TAF
KBDR 312324Z 0100/0124 21007KT P6SM SCT020 BKN040 BKN120
      TEMPO 0101/0102 3SM SHRA BR SCT020 BKN040
     FM010300 22005KT 4SM BR VCSH SCT020 BKN040
     FM010800 24004KT 4SM BR SCT015 BKN025
      TEMPO 0109/0113 2SM BR BKN015
     FM011300 24004KT 4SM BR BKN015 BKN025
     FM011700 23006KT P6SM SCT020 BKN035=



000
FTUS41 KOKX 312300
TAFEWR
TAF
KEWR 312324Z 0100/0206 23007KT P6SM SCT020 BKN040 BKN120
      TEMPO 0100/0102 3SM SHRA BR
     FM010200 25006KT 4SM BR VCSH SCT020 BKN040
     FM010800 26006KT 6SM BR SCT020 BKN030
      TEMPO 0109/0112 4SM BR BKN020
     FM011600 22007KT P6SM SCT025 BKN040 PROB30 0118/0122 5SM SHRA
      BKN025
     FM020100 21005KT P6SM SCT025 SCT040=



000
FTUS41 KOKX 312300
TAFGON
TAF
KGON 312324Z 0100/0124 20005KT 4SM SHRA BR FEW007 SCT020 BKN040
      TEMPO 0100/0104 3SM SHRA SCT007 BKN020
     FM010800 22004KT 4SM BR VCSH BKN007 OVC012
      TEMPO 0109/0113 1SM BR
     FM011500 24004KT 3SM BR SCT007 BKN015
     FM011800 23006KT 6SM HZ SCT015 BKN035=



000
FTUS41 KOKX 312300
TAFJFK
TAF
KJFK 312324Z 0100/0206 18010KT P6SM SCT020 BKN040 BKN120
      TEMPO 0101/0103 3SM SHRA BR
     FM010300 23007KT 4SM BR VCSH SCT020 BKN040
     FM010800 25006KT 6SM BR VCSH SCT015 BKN030
      TEMPO 0109/0112 5SM BR BKN015
     FM011600 18008KT P6SM SCT025 BKN040 PROB30 0118/0122 5SM SHRA
      BKN025
     FM020100 21007KT P6SM SCT025 SCT040=



000
FTUS41 KOKX 312300
TAFLGA
TAF
KLGA 312324Z 0100/0124 20008KT P6SM SCT020 BKN040 BKN120
      TEMPO 0101/0103 3SM SHRA BR
     FM010300 23007KT 4SM BR VCSH SCT020 BKN040
     FM010800 26006KT 6SM BR SCT015 BKN030
      TEMPO 0109/0112 BKN015
     FM011600 20006KT P6SM SCT025 BKN040 PROB30 0118/0122 5SM SHRA
      BKN025=



000
FTUS41 KOKX 312300
TAFTEB
TAF
KTEB 312324Z 0100/0124 VRB05KT P6SM SCT025 BKN040 BKN120
      TEMPO 0100/0102 3SM SHRA BR
     FM010200 VRB05KT 4SM BR VCSH SCT020 BKN040
     FM010800 VRB04KT 4SM BR SCT015 BKN025
      TEMPO 0109/0112 2SM BR BKN015
     FM011600 20005KT P6SM SCT025 BKN040 PROB30 0118/0122 5SM SHRA
      BKN025=



000
FTUS41 KOKX 312100 AAB
TAFISP
TAF AMD
KISP 312145Z 3122/0118 19011KT P6SM SCT020 BKN040 BKN120
     FM312200 20010KT 6SM -SHRA BR FEW020 BKN040 BKN120
      TEMPO 3122/3123 2SM TSRA SCT020 BKN040CB
     FM010000 23005KT 4SM BR SCT020 BKN040
     FM010800 25004KT 4SM BR VCSH SCT015 BKN025
      TEMPO 0109/0113 2SM BR BKN015
     FM011300 24004KT 4SM BR BKN015 BKN025
     FM011700 23006KT P6SM SCT020 BKN035=



000
FTUS41 KOKX 312100 AAE
TAFLGA
TAF AMD
KLGA 312115Z 3121/0118 VRB05KT 3SM -TSRA SCT020 BKN040CB BKN120
     FM312200 21010KT 3SM -SHRA BR SCT020 BKN040 BKN120
      TEMPO 0100/0102 2SM TSRA SCT020 BKN040CB
     FM010200 23007KT 4SM SHRA BR FEW025 BKN040
     FM010800 26006KT 6SM BR VCSH SCT025 BKN040
      TEMPO 0109/0112 BKN025
     FM011600 20006KT P6SM SCT025 BKN040=



000
FTUS41 KOKX 312100 AAD
TAFTEB
TAF AMD
KTEB 312106Z 3121/0118 VRB05KT 6SM -TSRA SCT025 BKN040CB BKN120
     FM312200 VRB05KT 3SM -SHRA BR SCT025 BKN040 BKN120
      TEMPO 3123/0101 2SM TSRA SCT025 BKN040CB
     FM010100 24004KT 4SM SHRA BR FEW025 BKN040
     FM010800 25004KT 4SM BR VCSH SCT015 BKN025
      TEMPO 0109/0112 2SM BR BKN015
     FM011600 23005KT P6SM SCT025 BKN040=



000
FTUS41 KOKX 312100 AAE
TAFEWR
TAF AMD
KEWR 312104Z 3121/0124 VRB05KT 6SM -TSRA SCT020 BKN040CB BKN120
     FM312200 21010KT 3SM -SHRA BR SCT020 BKN040 BKN120
      TEMPO 3123/0101 2SM TSRA SCT020 BKN040CB
     FM010100 25006KT 4SM SHRA BR FEW025 BKN040
     FM010800 26006KT 6SM BR VCSH SCT020 BKN030
      TEMPO 0109/0112 4SM BR BKN020
     FM011600 22007KT P6SM SCT025 BKN040 PROB30 0118/0122 5SM SHRA
      BKN025=



000
FTUS41 KOKX 312100 AAF
TAFJFK
TAF AMD
KJFK 312100Z 3121/0124 18014G20KT P6SM VCSH BKN040 BKN120
      TEMPO 3121/3122 32020G30KT 3SM -TSRA BR BKN040CB
     FM312230 19012KT 3SM -SHRA BR BKN040 BKN120
     FM010100 23007KT 4SM SHRA BR FEW025 BKN040
     FM010800 25006KT 6SM BR VCSH SCT025 BKN040
      TEMPO 0109/0112 BKN025
     FM011600 18008KT P6SM SCT025 BKN040 PROB30 0118/0122 5SM SHRA
      BKN025=



000
FTUS41 KOKX 312000 AAD
TAFSWF
TAF AMD
KSWF 312053Z 3121/0124 24009KT 2SM TSRA BKN030CB BKN100
      TEMPO 3121/3122 32020G35KT TSRA
     FM312230 25004KT 4SM SHRA BR SCT020 BKN040
     FM010600 VRB04KT 4SM BR VCSH SCT015 BKN025
      TEMPO 0108/0112 2SM BR BKN015
     FM011600 23005KT 6SM HZ SCT020 BKN040 PROB30 0116/0122 5SM SHRA
      BKN020
      AMD NOT SKED=



000
FTUS41 KOKX 312000 AAE
TAFJFK
TAF AMD
KJFK 312046Z 3121/0124 18014G20KT P6SM VCSH BKN040 BKN120
      TEMPO 3121/3122 32020G30KT 3SM -TSRA BR BKN040CB
     FM312200 19012KT 3SM -TSRA BR BKN040CB BKN120
      TEMPO 3122/0101 2SM TSRA
     FM010100 23007KT 4SM SHRA BR FEW025 BKN040
     FM010800 25006KT 6SM BR VCSH SCT025 BKN040
      TEMPO 0109/0112 BKN025
     FM011600 18008KT P6SM SCT025 BKN040 PROB30 0118/0122 5SM SHRA
      BKN025=



000
FTUS41 KOKX 312000 AAC
TAFBDR
TAF AMD
KBDR 312045Z 3121/0118 21007KT 6SM SHRA BR BKN040 BKN120
      TEMPO 3121/3123 32015G25KT 2SM TSRA BR SCT020 BKN040CB
     FM010500 24004KT 4SM SHRA BR SCT025 BKN040
     FM010800 25004KT 4SM BR VCSH SCT015 BKN025
      TEMPO 0109/0113 2SM BR BKN015
     FM011300 24004KT 4SM BR BKN015 BKN025
     FM011700 23006KT P6SM SCT020 BKN035=



000
FTUS41 KOKX 312000 AAD
TAFLGA
TAF AMD
KLGA 312040Z 3121/0118 32020G35KT 1SM TSRA BR SCT020 BKN040CB
     FM312200 20010KT 3SM -TSRA BR BKN040CB BKN120
      TEMPO 3122/0101 2SM TSRA
     FM010100 23007KT 4SM SHRA BR FEW025 BKN040
     FM010800 26006KT 6SM BR VCSH SCT025 BKN040
      TEMPO 0109/0112 BKN025
     FM011600 20006KT P6SM SCT025 BKN040=



000
FTUS41 KOKX 311900 AAD
TAFEWR
TAF AMD
KEWR 311941Z 3120/0124 22012G18KT 6SM -TSRA BKN040CB BKN120
      TEMPO 3120/3121 28015G40KT 2SM TSRA
     FM312200 21010KT 3SM -TSRA BR BKN040CB BKN120
      TEMPO 3122/0101 2SM TSRA
     FM010100 25006KT 4SM SHRA BR FEW025 BKN040
     FM010800 26006KT 6SM BR VCSH SCT020 BKN030
      TEMPO 0109/0112 4SM BR BKN020
     FM011600 22007KT P6SM SCT025 BKN040 PROB30 0118/0122 5SM SHRA
      BKN025=



000
FTUS41 KOKX 311900 CCA
TAFTEB
TAF COR
KTEB 311931Z 3119/0118 23010G16KT 6SM -TSRA BKN040CB BKN120
     FM312200 22010KT 3SM -TSRA BR BKN040CB BKN120
      TEMPO 3122/0101 2SM TSRA
     FM010100 24004KT 4SM SHRA BR FEW025 BKN040
     FM010800 25004KT 4SM BR VCSH SCT015 BKN025
      TEMPO 0109/0112 2SM BR BKN015
     FM011600 23005KT P6SM SCT025 BKN040=



000
FTUS41 KOKX 311900 AAA
TAFGON
TAF AMD
KGON 311919Z 3119/0118 20010KT P6SM SCT015 BKN025
      TEMPO 3120/3122 6SM BR BKN015
     FM312200 21007KT 6SM BR BKN010
     FM010000 20007KT 4SM SHRA BR SCT007 BKN010
      TEMPO 0100/0104 2SM SHRA BKN007
     FM010800 24004KT 4SM BR VCSH BKN005 OVC010
      TEMPO 0109/0113 1SM BR
     FM011300 24004KT 3SM BR BKN007 BKN015
     FM011700 23006KT 6SM HZ SCT010 BKN020=



000
FTUS41 KOKX 311900 AAC
TAFSWF
TAF AMD
KSWF 311919Z 3119/0124 24010KT P6SM VCSH SCT020 BKN035
      TEMPO 3120/3121 -SHRA
     FM312100 23009KT 4SM -TSRA BR BKN030CB BKN100
      TEMPO 3121/3124 2SM TSRA
     FM010100 25004KT 4SM SHRA BR SCT020 BKN040
     FM010600 VRB04KT 4SM BR VCSH SCT015 BKN025
      TEMPO 0108/0112 2SM BR BKN015
     FM011600 23005KT 6SM HZ SCT020 BKN040 PROB30 0116/0122 5SM SHRA
      BKN020
      AMD NOT SKED=



000
FTUS41 KOKX 311900 AAB
TAFBDR
TAF AMD
KBDR 311919Z 3119/0118 20009KT P6SM VCSH SCT020 BKN040 BKN120
     FM312200 21007KT 6SM -SHRA BR BKN040 BKN120
      TEMPO 3123/0103 2SM TSRA BKN040CB
     FM010500 24004KT 4SM SHRA BR SCT025 BKN040
     FM010800 25004KT 4SM BR VCSH SCT015 BKN025
      TEMPO 0109/0113 2SM BR BKN015
     FM011300 24004KT 4SM BR BKN015 BKN025
     FM011700 23006KT P6SM SCT020 BKN035=



000
FTUS41 KOKX 311900 AAC
TAFEWR
TAF AMD
KEWR 311919Z 3119/0124 22012G18KT 6SM -TSRA BKN040CB BKN120
     FM312200 21010KT 3SM -TSRA BR BKN040CB BKN120
      TEMPO 3122/0101 2SM TSRA
     FM010100 25006KT 4SM SHRA BR FEW025 BKN040
     FM010800 26006KT 6SM BR VCSH SCT020 BKN030
      TEMPO 0109/0112 4SM BR BKN020
     FM011600 22007KT P6SM SCT025 BKN040 PROB30 0118/0122 5SM SHRA
      BKN025=



000
FTUS41 KOKX 311900 AAD
TAFJFK
TAF AMD
KJFK 311919Z 3119/0124 18014KT P6SM VCSH BKN040 BKN120
      TEMPO 3120/3122 -TSRA BKN040CB
     FM312200 19012KT 3SM -TSRA BR BKN040CB BKN120
      TEMPO 3122/0101 2SM TSRA
     FM010100 23007KT 4SM SHRA BR FEW025 BKN040
     FM010800 25006KT 6SM BR VCSH SCT025 BKN040
      TEMPO 0109/0112 BKN025
     FM011600 18008KT P6SM SCT025 BKN040 PROB30 0118/0122 5SM SHRA
      BKN025=



000
FTUS41 KOKX 311900 AAA
TAFISP
TAF AMD
KISP 311919Z 3119/0118 19011KT P6SM SCT020 BKN040 BKN120
     FM312300 20010KT 6SM -SHRA BR FEW020 BKN040 BKN120
      TEMPO 0100/0103 2SM TSRA BKN040CB
     FM010400 23005KT 4SM SHRA BR SCT020 BKN040
     FM010800 25004KT 4SM BR VCSH SCT015 BKN025
      TEMPO 0109/0113 2SM BR BKN015
     FM011300 24004KT 4SM BR BKN015 BKN025
     FM011700 23006KT P6SM SCT020 BKN035=



000
FTUS41 KOKX 311900 AAC
TAFTEB
TAF AMD
KTEB 311919Z 3119/0118 23010G16KT 6SM -TSRA BKN040CB BKN120
      TEMPO 3119/3122 -TSRA BKN040CB
     FM312200 22010KT 3SM -TSRA BR BKN040CB BKN120
      TEMPO 3122/0101 2SM TSRA
     FM010100 24004KT 4SM SHRA BR FEW025 BKN040
     FM010800 25004KT 4SM BR VCSH SCT015 BKN025
      TEMPO 0109/0112 2SM BR BKN015
     FM011600 23005KT P6SM SCT025 BKN040=



000
FTUS41 KOKX 311900 AAC
TAFLGA
TAF AMD
KLGA 311919Z 3119/0118 18013G18KT P6SM VCSH BKN040 BKN120
      TEMPO 3120/3122 -TSRA BKN040CB
     FM312200 20010KT 3SM -TSRA BR BKN040CB BKN120
      TEMPO 3122/0101 2SM TSRA
     FM010100 23007KT 4SM SHRA BR FEW025 BKN040
     FM010800 26006KT 6SM BR VCSH SCT025 BKN040
      TEMPO 0109/0112 BKN025
     FM011600 20006KT P6SM SCT025 BKN040=



000
FTUS41 KOKX 311800 AAC
TAFJFK
TAF AMD
KJFK 311857Z 3119/0124 18014KT P6SM VCSH BKN040 BKN120
      TEMPO 3121/3122 -TSRA BKN040CB
     FM312200 20012KT 3SM SHRA BR BKN040 BKN120
      TEMPO 3122/0101 2SM TSRA BKN040CB
     FM010400 23007KT 4SM SHRA BR FEW025 BKN040
     FM010800 25006KT 6SM BR VCSH SCT025 BKN040
      TEMPO 0109/0112 BKN025
     FM011600 18008KT P6SM SCT025 BKN040 PROB30 0118/0122 5SM SHRA
      BKN025=



000
FTUS41 KOKX 311800 AAB
TAFLGA
TAF AMD
KLGA 311857Z 3119/0118 18013G18KT P6SM VCSH BKN040 BKN120
      TEMPO 3121/3122 -TSRA BKN040CB
     FM312200 20010KT 3SM SHRA BR SCT040 BKN120
      TEMPO 3122/0101 2SM TSRA BKN040CB
     FM010400 23007KT 4SM SHRA BR FEW025 BKN040
     FM010800 26006KT 6SM BR VCSH SCT025 BKN040
      TEMPO 0109/0112 BKN025
     FM011600 20006KT P6SM SCT025 BKN040=



000
FTUS41 KOKX 311800 AAB
TAFSWF
TAF AMD
KSWF 311844Z 3119/0124 24010KT P6SM VCSH SCT020 BKN035
      TEMPO 3119/3121 -TSRA BKN035CB
     FM312100 23010KT 4SM SHRA BR BKN030 BKN100
      TEMPO 3121/3124 2SM TSRA BKN030CB
     FM010200 25004KT 4SM SHRA BR SCT020 BKN040
     FM010600 VRB04KT 4SM BR VCSH SCT015 BKN025
      TEMPO 0108/0112 2SM BR BKN015
     FM011600 23005KT 6SM HZ SCT020 BKN040 PROB30 0116/0122 5SM SHRA
      BKN020
      AMD NOT SKED=



000
FTUS41 KOKX 311800 AAB
TAFEWR
TAF AMD
KEWR 311843Z 3119/0124 22012G18KT P6SM VCSH BKN040 BKN120
      TEMPO 3119/3122 -TSRA BKN040CB
     FM312200 21010KT 3SM SHRA BR BKN040 BKN120
      TEMPO 3122/0101 2SM TSRA BKN040CB
     FM010400 25006KT 4SM SHRA BR FEW025 BKN040
     FM010800 26006KT 6SM BR VCSH SCT020 BKN030
      TEMPO 0109/0112 4SM BR BKN020
     FM011600 22007KT P6SM SCT025 BKN040 PROB30 0118/0122 5SM SHRA
      BKN025=



000
FTUS41 KOKX 311800 AAB
TAFTEB
TAF AMD
KTEB 311843Z 3119/0118 22010G16KT P6SM VCSH BKN040 BKN120
      TEMPO 3119/3122 -TSRA BKN040CB
     FM312200 21010KT 3SM SHRA BR BKN040 BKN120
      TEMPO 3122/0101 2SM TSRA BKN040CB
     FM010400 24004KT 4SM SHRA BR FEW025 BKN040
     FM010800 25004KT 4SM BR VCSH SCT015 BKN025
      TEMPO 0109/0112 2SM BR BKN015
     FM011600 23005KT P6SM SCT025 BKN040=



000
FTUS41 KOKX 311800 AAA
TAFSWF
TAF AMD
KSWF 311825Z 3118/0124 23010KT P6SM VCSH SCT020 BKN035
     FM312000 23010KT 4SM SHRA BR BKN030 BKN100
      TEMPO 3120/3124 2SM TSRA BKN030CB
     FM010200 25004KT 4SM SHRA BR SCT020 BKN040
     FM010600 VRB04KT 4SM BR VCSH SCT015 BKN025
      TEMPO 0108/0112 2SM BR BKN015
     FM011600 23005KT 6SM HZ SCT020 BKN040 PROB30 0116/0122 5SM SHRA
      BKN020
      AMD NOT SKED=



000
FTUS41 KOKX 311800 AAA
TAFBDR
TAF AMD
KBDR 311824Z 3118/0118 22010KT P6SM VCSH SCT020 BKN040 BKN120
     FM312200 21007KT 4SM SHRA BR BKN040 BKN120
      TEMPO 0100/0103 2SM TSRA BKN040CB
     FM010500 24004KT 4SM SHRA BR SCT025 BKN040
     FM010800 25004KT 4SM BR VCSH SCT015 BKN025
      TEMPO 0109/0113 2SM BR BKN015
     FM011300 24004KT 4SM BR BKN015 BKN025
     FM011700 23006KT P6SM SCT020 BKN035=



000
FTUS41 KOKX 311800 AAB
TAFJFK
TAF AMD
KJFK 311822Z 3118/0124 18013KT P6SM VCSH BKN040 BKN120
      TEMPO 3120/3122 SHRA
     FM312200 20012KT 3SM SHRA BR BKN040 BKN120
      TEMPO 3122/0101 2SM TSRA BKN040CB
     FM010400 23007KT 4SM SHRA BR FEW025 BKN040
     FM010800 25006KT 6SM BR VCSH SCT025 BKN040
      TEMPO 0109/0112 BKN025
     FM011600 18008KT P6SM SCT025 BKN040 PROB30 0118/0122 5SM SHRA
      BKN025=



000
FTUS41 KOKX 311800 AAA
TAFTEB
TAF AMD
KTEB 311822Z 3118/0118 22010G16KT P6SM VCSH BKN040 BKN120
      TEMPO 3120/3121 SHRA
     FM312100 21010KT 3SM SHRA BR BKN040 BKN120
      TEMPO 3121/0101 2SM TSRA BKN040CB
     FM010400 24004KT 4SM SHRA BR FEW025 BKN040
     FM010800 25004KT 4SM BR VCSH SCT015 BKN025
      TEMPO 0109/0112 2SM BR BKN015
     FM011600 23005KT P6SM SCT025 BKN040=



000
FTUS41 KOKX 311800 AAA
TAFLGA
TAF AMD
KLGA 311822Z 3118/0118 20013G18KT P6SM VCSH BKN040 BKN120
      TEMPO 3120/3122 SHRA
     FM312200 20010KT 3SM SHRA BR SCT040 BKN120
      TEMPO 3122/0101 2SM TSRA BKN040CB
     FM010400 23007KT 4SM SHRA BR FEW025 BKN040
     FM010800 26006KT 6SM BR VCSH SCT025 BKN040
      TEMPO 0109/0112 BKN025
     FM011600 20006KT P6SM SCT025 BKN040=



000
FTUS41 KOKX 311800 AAA
TAFEWR
TAF AMD
KEWR 311822Z 3118/0124 22012G18KT P6SM VCSH BKN040 BKN120
      TEMPO 3120/3121 SHRA
     FM312100 21010KT 3SM SHRA BR BKN040 BKN120
      TEMPO 3121/0101 2SM TSRA BKN040CB
     FM010400 25006KT 4SM SHRA BR FEW025 BKN040
     FM010800 26006KT 6SM BR VCSH SCT020 BKN030
      TEMPO 0109/0112 4SM BR BKN020
     FM011600 22007KT P6SM SCT025 BKN040 PROB30 0118/0122 5SM SHRA
      BKN025=



000
FTUS41 KOKX 311800 AAA
TAFJFK
TAF AMD
KJFK 311800Z 3118/0124 19013KT P6SM BKN040 BKN120
      TEMPO 3118/3119 SHRA
     FM312200 20012KT 3SM SHRA BR BKN040 BKN120
      TEMPO 3122/0101 2SM TSRA BKN040CB
     FM010400 23007KT 4SM SHRA BR FEW025 BKN040
     FM010800 25006KT 6SM BR VCSH SCT025 BKN040
      TEMPO 0109/0112 BKN025
     FM011600 18008KT P6SM SCT025 BKN040 PROB30 0118/0122 5SM SHRA
      BKN025=



000
FTUS41 KOKX 311700
TAFGON
TAF
KGON 311728Z 3118/0118 20010KT P6SM SCT015 BKN025
      TEMPO 3118/3122 BKN015
     FM312200 21007KT 6SM BR BKN010
     FM010000 20007KT 4SM SHRA BR SCT007 BKN010
      TEMPO 0100/0104 2SM SHRA BKN007
     FM010800 24004KT 4SM BR VCSH BKN005 OVC010
      TEMPO 0109/0113 1SM BR
     FM011300 24004KT 3SM BR BKN007 BKN015
     FM011700 23006KT 6SM HZ SCT010 BKN020=



000
FTUS41 KOKX 311700
TAFTEB
TAF
KTEB 311728Z 3118/0118 21011G17KT P6SM BKN040 BKN120
     FM312100 21009KT 3SM SHRA BR BKN040 BKN120
      TEMPO 3122/0101 2SM TSRA BKN040CB
     FM010400 24004KT 4SM SHRA BR FEW025 BKN040
     FM010800 25004KT 4SM BR VCSH SCT015 BKN025
      TEMPO 0109/0112 2SM BR BKN015
     FM011600 23005KT P6SM SCT025 BKN040=



000
FTUS41 KOKX 311700
TAFEWR
TAF
KEWR 311728Z 3118/0124 21011G18KT P6SM BKN040 BKN120
     FM312100 21010KT 3SM SHRA BR BKN040 BKN120
      TEMPO 3122/0101 2SM TSRA BKN040CB
     FM010400 25006KT 4SM SHRA BR FEW025 BKN040
     FM010800 26006KT 6SM BR VCSH SCT020 BKN030
      TEMPO 0109/0112 4SM BR BKN020
     FM011600 22007KT P6SM SCT025 BKN040 PROB30 0118/0122 5SM SHRA
      BKN025=



000
FTUS41 KOKX 311700
TAFBDR
TAF
KBDR 311728Z 3118/0118 21010KT P6SM SCT020 BKN040 BKN120
     FM312300 21007KT 4SM SHRA BR BKN040 BKN120
      TEMPO 0100/0103 2SM TSRA BKN040CB
     FM010500 24004KT 4SM SHRA BR SCT025 BKN040
     FM010800 25004KT 4SM BR VCSH SCT015 BKN025
      TEMPO 0109/0113 2SM BR BKN015
     FM011300 24004KT 4SM BR BKN015 BKN025
     FM011700 23006KT P6SM SCT020 BKN035=



000
FTUS41 KOKX 311700
TAFJFK
TAF
KJFK 311728Z 3118/0124 19013KT P6SM BKN040 BKN120
     FM312200 20012KT 3SM SHRA BR BKN040 BKN120
      TEMPO 3122/0101 2SM TSRA BKN040CB
     FM010400 23007KT 4SM SHRA BR FEW025 BKN040
     FM010800 25006KT 6SM BR VCSH SCT025 BKN040
      TEMPO 0109/0112 BKN025
     FM011600 18008KT P6SM SCT025 BKN040 PROB30 0118/0122 5SM SHRA
      BKN025=



000
FTUS41 KOKX 311700
TAFSWF
TAF
KSWF 311728Z 3118/0124 23010KT P6SM SCT015 BKN025
     FM312000 23010KT 4SM SHRA BR BKN030 BKN100
      TEMPO 3120/3124 2SM TSRA BKN030CB
     FM010200 25004KT 4SM SHRA BR SCT020 BKN040
     FM010600 VRB04KT 4SM BR VCSH SCT015 BKN025
      TEMPO 0108/0112 2SM BR BKN015
     FM011600 23005KT 6SM HZ SCT020 BKN040 PROB30 0116/0122 5SM SHRA
      BKN020
      AMD NOT SKED=



000
FTUS41 KOKX 311700
TAFISP
TAF
KISP 311728Z 3118/0118 20011G16KT P6SM SCT020 BKN040 BKN120
      TEMPO 3118/3120 BKN020
     FM312300 20010KT 4SM SHRA BR FEW020 BKN040 BKN120
      TEMPO 0100/0103 2SM TSRA BKN040CB
     FM010400 23005KT 4SM SHRA BR SCT020 BKN040
     FM010800 25004KT 4SM BR VCSH SCT015 BKN025
      TEMPO 0109/0113 2SM BR BKN015
     FM011300 24004KT 4SM BR BKN015 BKN025
     FM011700 23006KT P6SM SCT020 BKN035=



000
FTUS41 KOKX 311700
TAFLGA
TAF
KLGA 311728Z 3118/0118 21011G16KT P6SM SCT025 BKN040 BKN120
     FM311900 19013G18KT P6SM BKN040 BKN120
     FM312200 20010KT 3SM SHRA BR SCT040 BKN120
      TEMPO 3122/0101 2SM TSRA BKN040CB
     FM010400 23007KT 4SM SHRA BR FEW025 BKN040
     FM010800 26006KT 6SM BR VCSH SCT025 BKN040
      TEMPO 0109/0112 BKN025
     FM011600 20006KT P6SM SCT025 BKN040=



000
FTUS41 KOKX 311500 AAB
TAFTEB
TAF AMD
KTEB 311510Z 3115/0112 21010KT P6SM SCT015 BKN040
      TEMPO 3115/3117 BKN015 BKN040
     FM311700 20011G17KT P6SM SCT040 BKN080 BKN150
     FM312100 21008KT 4SM SHRA BR SCT040 BKN080
      TEMPO 3122/3124 3SM TSRA BKN040CB
     FM010400 24005KT 4SM SHRA BR FEW025 BKN040=



000
FTUS41 KOKX 311500 AAB
TAFEWR
TAF AMD
KEWR 311508Z 3115/0118 22011G17KT P6SM SCT025 BKN040
      TEMPO 3115/3118 BKN025
     FM311800 21012G18KT P6SM SCT040 BKN080
     FM312100 21010KT 4SM SHRA BR SCT040 BKN080
      TEMPO 3122/3124 3SM TSRA BKN040CB
     FM010400 25007KT 4SM SHRA BR FEW025 BKN040
     FM011200 24007KT 6SM BR VCSH SCT025 BKN050=



000
FTUS41 KOKX 311500 AAB
TAFJFK
TAF AMD
KJFK 311508Z 3115/0118 21010KT P6SM SCT015 BKN040
      TEMPO 3115/3118 BKN015 BKN040
     FM311800 19016KT P6SM SCT040 BKN080 BKN150
     FM312200 20012KT 4SM SHRA BR SCT040 BKN080
      TEMPO 3122/3124 3SM TSRA BKN040CB
     FM010400 24007KT 4SM SHRA BR FEW025 BKN040
     FM011200 24007KT 6SM BR VCSH SCT025 BKN050=



000
FTUS41 KOKX 311500 AAB
TAFLGA
TAF AMD
KLGA 311508Z 3115/0112 21010KT P6SM SCT015 BKN040
      TEMPO 3115/3117 BKN015 BKN040
     FM311700 20011G16KT P6SM SCT025 BKN040
     FM311900 19014G20KT P6SM SCT040 BKN080 BKN150
     FM312200 20010KT 4SM SHRA BR SCT040 BKN080
      TEMPO 3122/3124 3SM TSRA BKN040CB
     FM010400 23008KT 4SM SHRA BR FEW025 BKN040=



000
FTUS41 KOKX 311300 AAA
TAFBDR
TAF AMD
KBDR 311358Z 3114/0112 21007KT P6SM BKN015 OVC025
     FM311700 20009KT P6SM FEW025 SCT040 BKN200
     FM311900 19010G16KT P6SM SCT020 SCT040 BKN150
     FM312300 21006KT 4SM SHRA BR SCT040 BKN080
      TEMPO 3123/0101 TSRA BKN040CB
     FM010500 24004KT 4SM SHRA BR FEW025 BKN040=



000
FTUS41 KOKX 311300 AAA
TAFEWR
TAF AMD
KEWR 311358Z 3114/0118 23010KT P6SM BKN015 BKN025
      TEMPO 3115/3117 SCT015 BKN025
     FM311700 21010G16KT P6SM SCT025 BKN040
     FM311800 21012G18KT P6SM SCT040 SCT080
     FM312200 21010KT 4SM SHRA BR SCT040 BKN080
      TEMPO 3122/3124 3SM TSRA BKN040CB
     FM010400 25007KT 4SM SHRA BR FEW025 BKN040
     FM011200 24007KT 6SM BR VCSH SCT025 BKN050=



000
FTUS41 KOKX 311300 AAA
TAFTEB
TAF AMD
KTEB 311358Z 3114/0112 20008KT P6SM BKN015 OVC025
      TEMPO 3115/3117 SCT015 BKN025
     FM311700 21009KT P6SM SCT025 BKN040
     FM311800 20011G17KT P6SM SCT040 SCT080 BKN150
     FM312200 21008KT 4SM SHRA BR SCT040 BKN080
      TEMPO 3122/3124 3SM TSRA BKN040CB
     FM010400 24005KT 4SM SHRA BR FEW025 BKN040=



000
FTUS41 KOKX 311300 AAA
TAFSWF
TAF AMD
KSWF 311358Z 3114/0118 23006KT P6SM BKN015 OVC025
     FM311700 23008KT 6SM HZ SCT025 BKN040
     FM312000 24008KT 4SM SHRA BR SCT040 BKN080
      TEMPO 3120/3124 3SM TSRA BKN040CB
     FM010200 25004KT 5SM BR VCSH SCT025 BKN040
     FM010700 VRB04KT 5SM BR FEW015 BKN040
     FM011100 VRB03KT 3SM BR BKN015
     FM011500 VRB04KT 6SM HZ BKN035
      AMD NOT SKED=



000
FTUS41 KOKX 311300 AAA
TAFGON
TAF AMD
KGON 311358Z 3114/0112 21006KT P6SM BKN015 BKN025
     FM311800 20010G17KT 6SM HZ SCT020 SCT040 BKN150
     FM312300 20008KT 6SM BR BKN010
     FM010100 21008KT 4SM SHRA BR SCT007 BKN015 PROB30 0101/0106
      TSRA SCT015 BKN040CB
     FM010600 24005KT 4SM SHRA BR SCT007 BKN015=



000
FTUS41 KOKX 311300 AAA
TAFISP
TAF AMD
KISP 311358Z 3114/0112 21010KT P6SM BKN015 OVC025
      TEMPO 3115/3117 SCT015 BKN025
     FM311700 20012G18KT P6SM SCT025 SCT040 BKN200
     FM010000 21010KT 4SM SHRA BR SCT040 BKN080 PROB30 0100/0106
      TSRA BKN040CB
     FM010600 24004KT 4SM SHRA BR FEW025 BKN040=



000
FTUS41 KOKX 311300 AAA
TAFJFK
TAF AMD
KJFK 311358Z 3114/0118 20011KT P6SM BKN015 BKN025
      TEMPO 3115/3118 SCT015 BKN025
     FM311800 19016KT P6SM SCT040 SCT080 BKN150
     FM312200 20012KT 4SM SHRA BR SCT040 BKN080
      TEMPO 3122/3124 3SM TSRA BKN040CB
     FM010400 24007KT 4SM SHRA BR FEW025 BKN040
     FM011200 24007KT 6SM BR VCSH SCT025 BKN050=



000
FTUS41 KOKX 311300 AAA
TAFLGA
TAF AMD
KLGA 311358Z 3114/0112 21011KT P6SM BKN015 BKN025
      TEMPO 3115/3117 SCT015 BKN025
     FM311700 20011G16KT P6SM SCT025 BKN040
     FM311900 20014G20KT P6SM SCT040 SCT080 BKN150
     FM312200 20010KT 4SM SHRA BR SCT040 BKN080
      TEMPO 3122/3124 3SM TSRA BKN040CB
     FM010400 23008KT 4SM SHRA BR FEW025 BKN040=



000
FTUS41 KOKX 311100 RRA
TAFSWF
TAF
KSWF 311143Z 3112/0118 VRB03KT P6SM OVC015
     FM311400 24006KT P6SM SCT015 BKN030
     FM311600 23008KT 6SM HZ SCT025 BKN040
     FM312000 24008KT 4SM SHRA BR SCT040 BKN080
     FM010200 25004KT 5SM BR VCSH SCT025 BKN040
     FM010700 VRB04KT 5SM BR FEW015 BKN040
     FM011100 VRB03KT 3SM BR BKN015
     FM011500 VRB04KT 6SM HZ BKN035
      AMD NOT SKED=



000
FTUS41 KOKX 311100
TAFJFK
TAF
KJFK 311138Z 3112/0118 21008KT P6SM BKN015
      TEMPO 3113/3115 SCT015 BKN025
     FM311500 20012KT P6SM SCT025 BKN040
     FM311800 19016KT P6SM SCT040 SCT080 BKN150
     FM312200 20012KT 4SM SHRA BR SCT040 BKN080 PROB30 3122/0104 2SM
      TSRA BKN040CB
     FM010400 24007KT 4SM SHRA BR FEW025 BKN040
     FM011200 24007KT 6SM BR VCSH SCT025 BKN050=



000
FTUS41 KOKX 311100
TAFEWR
TAF
KEWR 311138Z 3112/0118 20008KT P6SM BKN015
      TEMPO 3113/3115 SCT015 BKN025
     FM311500 21010G16KT P6SM SCT025 BKN040
     FM311800 21012G18KT P6SM SCT040 SCT080
     FM312200 21010KT 4SM SHRA BR SCT040 BKN080 PROB30 3122/0104 2SM
      TSRA BKN040CB
     FM010400 25007KT 4SM SHRA BR FEW025 BKN040
     FM011200 24007KT 6SM BR VCSH SCT025 BKN050=



000
FTUS41 KOKX 311100
TAFBDR
TAF
KBDR 311138Z 3112/0112 21007KT P6SM BKN020
     FM311500 20009KT P6SM FEW025 SCT040 BKN200
     FM311900 19010G16KT P6SM SCT020 SCT040 BKN150
     FM312300 21006KT 4SM SHRA BR SCT040 BKN080 PROB30 3123/0105
      TSRA BKN040CB
     FM010500 24004KT 4SM SHRA BR FEW025 BKN040=



000
FTUS41 KOKX 311100
TAFTEB
TAF
KTEB 311138Z 3112/0112 20006KT P6SM BKN015
      TEMPO 3113/3115 SCT015 BKN025
     FM311500 21009KT P6SM SCT025 BKN040
     FM311800 20011G17KT P6SM SCT040 SCT080 BKN150
     FM312200 21008KT 4SM SHRA BR SCT040 BKN080 PROB30 3122/0104 2SM
      TSRA BKN040CB
     FM010400 24005KT 4SM SHRA BR FEW025 BKN040=



000
FTUS41 KOKX 311100
TAFISP
TAF
KISP 311138Z 3112/0112 21007KT P6SM SCT015 BKN025
      TEMPO 3112/3114 BKN015
     FM311500 20012G18KT P6SM SCT025 SCT040 BKN200
     FM010000 21010KT 4SM SHRA BR SCT040 BKN080 PROB30 0100/0106
      TSRA BKN040CB
     FM010600 24004KT 4SM SHRA BR FEW025 BKN040=



000
FTUS41 KOKX 311100
TAFGON
TAF
KGON 311138Z 3112/0112 21006KT P6SM BKN020
     FM311800 20010G17KT 6SM HZ SCT020 SCT040 BKN150
     FM312300 20008KT 6SM BR BKN010
     FM010100 21008KT 4SM SHRA BR SCT007 BKN015 PROB30 0101/0106
      TSRA SCT015 BKN040CB
     FM010600 24005KT 4SM SHRA BR SCT007 BKN015=



000
FTUS41 KOKX 311100
TAFLGA
TAF
KLGA 311138Z 3112/0112 20008KT P6SM BKN015
      TEMPO 3113/3115 SCT015 BKN025
     FM311500 20011G16KT P6SM SCT025 BKN040
     FM311900 20014G20KT P6SM SCT040 SCT080 BKN150
     FM312200 20010KT 4SM SHRA BR SCT040 BKN080 PROB30 3122/0104 2SM
      TSRA BKN040CB
     FM010400 23008KT 4SM SHRA BR FEW025 BKN040=



000
FTUS41 KOKX 310800 AAA
TAFGON
TAF AMD
KGON 310836Z 3109/0106 20008KT P6SM SCT015 OVC040
      TEMPO 3109/3111 BKN015
     FM311100 21006KT 6SM BR OVC010
     FM311500 20009KT 6SM HZ BKN020
     FM311800 20010KT 6SM HZ SCT020 SCT040 BKN150
     FM312300 20008KT 6SM BR BKN010
     FM010200 21010KT 4SM SHRA BR SCT007 SCT030 BKN080 PROB30
      0102/0106 TSRA BKN040CB=



000
FTUS41 KOKX 310800 AAA
TAFISP
TAF AMD
KISP 310836Z 3109/0106 21007KT P6SM SCT015 BKN025
      TEMPO 3109/3110 BKN015
     FM311000 21007KT 6SM BR BKN015
     FM311500 20012G18KT P6SM SCT020 SCT040 BKN200
     FM010000 21010KT 4SM SHRA BR SCT040 BKN080 PROB30 0100/0106
      TSRA BKN040CB=



000
FTUS41 KOKX 310800 AAA
TAFBDR
TAF AMD
KBDR 310836Z 3109/0106 21009KT P6SM SCT025 OVC040
      TEMPO 3109/3111 SCT015 OVC025
     FM311100 21007KT 6SM BR OVC015
     FM311500 20009KT P6SM FEW025 SCT040 BKN200
     FM311900 19010G16KT P6SM SCT020 SCT040 BKN150
     FM010000 21006KT 4SM SHRA BR SCT040 BKN080 PROB30 0100/0106
      TSRA BKN040CB=



000
FTUS41 KOKX 310800 AAA
TAFSWF
TAF AMD
KSWF 310836Z 3109/0112 VRB04KT P6SM OVC025
      TEMPO 3109/3111 OVC015
     FM311100 VRB03KT 5SM BR OVC010
     FM311400 24006KT 6SM HZ SCT010 BKN020
     FM311600 23008KT P6SM SCT020 BKN040
     FM312000 24008KT 4SM SHRA BR SCT040 BKN080 PROB30 3120/0102
      TSRA BKN040CB
     FM010200 25004KT 4SM BR SCT025 BKN040
     FM010700 VRB04KT 3SM BR BKN015
      AMD NOT SKED=



000
FTUS41 KOKX 310800 AAA
TAFEWR
TAF AMD
KEWR 310836Z 3109/0112 19007KT P6SM OVC020
     FM311000 21008KT P6SM OVC015
     FM311500 21010G16KT P6SM SCT020 BKN040
     FM311800 21012G18KT P6SM SCT040 SCT080
     FM312200 21010KT 4SM SHRA BR SCT040 BKN080 PROB30 3122/0104
      TSRA BKN040CB
     FM010400 24007KT 4SM SHRA BR FEW025 BKN040=



000
FTUS41 KOKX 310800 AAA
TAFLGA
TAF AMD
KLGA 310836Z 3109/0106 21008KT P6SM OVC020
      TEMPO 3109/3110 OVC015
     FM311100 21008KT P6SM OVC015
     FM311500 20011G16KT P6SM SCT020 BKN040
     FM311900 20014G20KT P6SM SCT040 SCT080 BKN150
     FM312200 20010KT 4SM SHRA BR SCT040 BKN080 PROB30 3122/0104
      TSRA BKN040CB
     FM010400 23008KT 4SM SHRA BR FEW025 BKN040=



000
FTUS41 KOKX 310800 AAA
TAFJFK
TAF AMD
KJFK 310836Z 3109/0112 21008KT P6SM OVC020
      TEMPO 3109/3110 OVC015
     FM311000 21008KT P6SM OVC015
     FM311500 20012KT P6SM SCT020 BKN040
     FM311800 19016KT P6SM SCT040 SCT080 BKN150
     FM312200 20012KT 4SM SHRA BR SCT040 BKN080 PROB30 3122/0104
      TSRA BKN040CB
     FM010400 23008KT 4SM SHRA BR FEW025 BKN040=



000
FTUS41 KOKX 310800 AAA
TAFTEB
TAF AMD
KTEB 310836Z 3109/0106 19005KT P6SM OVC020
     FM311000 20006KT P6SM OVC015
     FM311500 21009KT 6SM HZ SCT020 BKN040
     FM311800 21011G17KT P6SM SCT040 SCT080 BKN150
     FM312200 21008KT 4SM SHRA BR SCT040 BKN080 PROB30 3122/0104
      TSRA BKN040CB
     FM010400 22005KT 4SM SHRA BR FEW025 BKN040=



000
FTUS41 KOKX 310600 RRA
TAFGON
TAF
KGON 310602Z 3106/0106 20008KT P6SM SCT025 BKN035
      TEMPO 3107/3109 SCT015 BKN025
     FM310900 21006KT 3SM BR BKN010
     FM311500 20009KT P6SM BKN020
     FM311800 20010KT P6SM SCT020 SCT040 BKN150
     FM312300 20008KT 6SM BR BKN010
     FM010200 21010KT 4SM SHRA BR SCT007 SCT030 BKN080 PROB30
      0102/0106 TSRA BKN040CB=



000
FTUS41 KOKX 310500 RRA
TAFISP
TAF
KISP 310556Z 3106/0106 21007KT P6SM SCT020 BKN035
      TEMPO 3107/3109 SCT015 BKN020
     FM310900 21007KT 6SM BR BKN015
     FM311500 20012G18KT P6SM SCT020 SCT040 BKN200
     FM010000 21010KT 4SM SHRA BR SCT040 BKN080 PROB30 0100/0106
      TSRA BKN040CB=



000
FTUS41 KOKX 310500 RRA
TAFBDR
TAF
KBDR 310556Z 3106/0106 21009KT P6SM SCT025 BKN040
      TEMPO 3107/3109 SCT015 BKN025
     FM310900 21007KT 6SM BR BKN015
     FM311500 20008KT P6SM FEW025 SCT040 BKN200
     FM311900 19010G16KT P6SM SCT020 SCT040 BKN150
     FM010000 21006KT 4SM SHRA BR SCT040 BKN080 PROB30 0100/0106
      TSRA BKN040CB=



000
FTUS41 KOKX 310500 RRA
TAFTEB
TAF
KTEB 310546Z 3106/0106 19005KT P6SM SCT025 BKN040
      TEMPO 3108/3110 SCT015 BKN025
     FM311000 20006KT P6SM BKN015
     FM311500 21009KT 6SM HZ SCT020 BKN040
     FM311800 21011G17KT P6SM SCT040 SCT080 BKN150
     FM312200 21008KT 4SM SHRA BR SCT040 BKN080 PROB30 3122/0104
      TSRA BKN040CB
     FM010400 22005KT 4SM SHRA BR FEW025 BKN040=



000
FTUS41 KOKX 310500
TAFJFK
TAF
KJFK 310540Z 3106/0112 20008KT P6SM SCT015 BKN040
      TEMPO 3107/3110 BKN015
     FM311000 20008KT P6SM BKN015
     FM311500 19012KT P6SM SCT020 BKN040
     FM311800 19016KT P6SM SCT040 SCT080 BKN150
     FM312200 20012KT 4SM SHRA BR SCT040 BKN080 PROB30 3122/0104
      TSRA BKN040CB
     FM010400 23008KT 4SM SHRA BR FEW025 BKN040=



000
FTUS41 KOKX 310500
TAFEWR
TAF
KEWR 310540Z 3106/0112 19007KT P6SM SCT025 BKN045
      TEMPO 3107/3110 SCT015 BKN025
     FM311000 21008KT P6SM BKN015
     FM311500 21010G16KT P6SM SCT020 BKN040
     FM311800 21012G18KT P6SM SCT040 SCT080
     FM312200 21010KT 4SM SHRA BR SCT040 BKN080 PROB30 3122/0104
      TSRA BKN040CB
     FM010400 24007KT 4SM SHRA BR FEW025 BKN040=



000
FTUS41 KOKX 310500
TAFSWF
TAF
KSWF 310540Z 3106/0112 VRB04KT P6SM OVC035
      TEMPO 3106/3109 SCT015 BKN025
     FM310900 VRB03KT 5SM BR BKN010
     FM311400 24006KT 6SM HZ SCT010 BKN020
     FM311600 23008KT P6SM SCT020 BKN040
     FM312000 24008KT 4SM SHRA BR SCT040 BKN080 PROB30 3120/0102
      TSRA BKN040CB
     FM010200 25004KT 4SM BR SCT025 BKN040
     FM010700 VRB04KT 3SM BR BKN015
      AMD NOT SKED=



000
FTUS41 KOKX 310500
TAFLGA
TAF
KLGA 310540Z 3106/0106 21008KT P6SM SCT015 BKN045
      TEMPO 3108/3110 BKN015
     FM311000 21008KT P6SM BKN015
     FM311500 20011G16KT P6SM SCT020 BKN040
     FM311900 20014G20KT P6SM SCT040 SCT080 BKN150
     FM312200 20010KT 4SM SHRA BR SCT040 BKN080 PROB30 3122/0104
      TSRA BKN040CB
     FM010400 23008KT 4SM SHRA BR FEW025 BKN040=



000
FTUS41 KOKX 310200 AAA
TAFJFK
TAF AMD
KJFK 310230Z 3103/0106 20009KT P6SM SCT025 BKN035
      TEMPO 3106/3110 SCT015 BKN025
     FM311000 20008KT P6SM BKN015
     FM311500 19012KT P6SM SCT020 BKN040
     FM311800 19016KT P6SM SCT040 SCT080
     FM010000 20012KT 5SM SHRA BR SCT040 BKN080 PROB30 0100/0106
      TSRA BKN040CB=



000
FTUS41 KOKX 310200 AAA
TAFTEB
TAF AMD
KTEB 310230Z 3103/3124 19005KT P6SM SCT025 BKN035
      TEMPO 3106/3110 SCT015 BKN025
     FM311000 20006KT P6SM BKN015
     FM311500 20008KT 6SM HZ SCT020 BKN040
     FM311800 20010G16KT P6SM SCT040 SCT080=



000
FTUS41 KOKX 310200 AAA
TAFISP
TAF AMD
KISP 310230Z 3103/3124 19007KT P6SM SCT025 BKN035
      TEMPO 3106/3109 SCT015 BKN025
     FM310900 21007KT 6SM BR BKN015
     FM311600 20012G18KT P6SM SCT020 SCT040=



000
FTUS41 KOKX 310200 AAA
TAFSWF
TAF AMD
KSWF 310230Z 3103/0106 VRB04KT P6SM FEW025 BKN035
      TEMPO 3106/3109 SCT015 BKN025
     FM310900 VRB03KT 5SM BR BKN010
     FM311600 22008KT P6SM SCT020 BKN040
     FM312200 23008KT 5SM SHRA BR SCT040 BKN080 PROB30 3122/0104
      TSRA BKN040CB
      AMD NOT SKED=



000
FTUS41 KOKX 310200 AAA
TAFEWR
TAF AMD
KEWR 310230Z 3103/0106 20007KT P6SM SCT025 BKN035
      TEMPO 3106/3110 SCT015 BKN025
     FM311000 21008KT P6SM BKN015
     FM311500 21010KT P6SM SCT020 BKN040
     FM311800 21012G18KT P6SM SCT040 SCT080
     FM010000 23008KT 5SM SHRA BR SCT040 BKN080 PROB30 0100/0106
      TSRA BKN040CB=



000
FTUS41 KOKX 310200 AAA
TAFLGA
TAF AMD
KLGA 310230Z 3103/3124 20008KT P6SM SCT025 BKN035
      TEMPO 3106/3110 SCT015 BKN025
     FM311000 21008KT P6SM BKN015
     FM311500 20011KT P6SM SCT020 BKN040
     FM311900 19014G20KT P6SM SCT040 SCT080=



000
FTUS41 KOKX 310200 AAA
TAFBDR
TAF AMD
KBDR 310230Z 3103/3124 20010KT P6SM FEW025 SCT040
     FM310400 20006KT P6SM SCT025 BKN040
      TEMPO 3106/3109 SCT015 BKN025
     FM310900 20007KT 6SM BR BKN015
     FM311500 21008KT P6SM FEW025 SCT040
     FM311900 19010G16KT P6SM SCT020 SCT040=



000
FTUS41 KOKX 310200 AAA
TAFGON
TAF AMD
KGON 310230Z 3103/3124 18009KT P6SM FEW025 SCT040
     FM310400 20005KT P6SM SCT025 SCT040
      TEMPO 3106/3109 SCT015 BKN025
     FM310900 21005KT 3SM BR BKN010
     FM311500 21009KT P6SM BKN020
     FM311800 18010KT P6SM SCT020 SCT040=



000
FTUS41 KOKX 302300
TAFBDR
TAF
KBDR 302340Z 3100/3124 20010KT P6SM FEW025 SCT040
     FM310100 20006KT P6SM SCT015 BKN040
     FM310900 20007KT 6SM BR BKN015
     FM311500 21008KT P6SM FEW025 SCT040
     FM311900 19010G16KT P6SM SCT020 SCT040=



000
FTUS41 KOKX 302300
TAFJFK
TAF
KJFK 302340Z 3100/0106 17013KT P6SM SCT025 BKN040
     FM310200 20009KT P6SM SCT015 BKN035
     FM311000 20008KT P6SM BKN015
     FM311500 19012KT P6SM SCT020 BKN040
     FM311800 19016KT P6SM SCT040 SCT080
     FM010000 20012KT 5SM SHRA BR SCT040 BKN080 PROB30 0100/0106
      TSRA BKN040CB=



000
FTUS41 KOKX 302300
TAFLGA
TAF
KLGA 302340Z 3100/3124 17012KT P6SM SCT025 BKN040
     FM310200 20008KT P6SM SCT015 BKN035
     FM311000 21008KT P6SM BKN015
     FM311500 20011KT P6SM SCT020 BKN040
     FM311900 19014G20KT P6SM SCT040 SCT080=



000
FTUS41 KOKX 302300
TAFEWR
TAF
KEWR 302340Z 3100/0106 16008KT P6SM SCT025 BKN040
     FM310100 20006KT P6SM SCT015 BKN035
     FM311000 21008KT P6SM BKN015
     FM311500 21010KT P6SM SCT020 BKN040
     FM311800 21012G18KT P6SM SCT040 SCT080
     FM010000 23008KT 5SM SHRA BR SCT040 BKN080 PROB30 0100/0106
      TSRA BKN040CB=



000
FTUS41 KOKX 302300
TAFSWF
TAF
KSWF 302340Z 3100/0106 VRB04KT P6SM FEW015 BKN035
     FM310800 VRB03KT 5SM BR BKN010
     FM311600 22008KT P6SM SCT020 BKN040
     FM312200 23008KT 5SM SHRA BR SCT040 BKN080 PROB30 3122/0104
      TSRA BKN040CB
      AMD NOT SKED=



000
FTUS41 KOKX 302300
TAFISP
TAF
KISP 302340Z 3100/3124 18010KT P6SM SCT025 SCT035
     FM310100 19007KT P6SM SCT015 BKN035
     FM310800 21007KT 6SM BR BKN015
     FM311600 20012G18KT P6SM SCT020 SCT040=



000
FTUS41 KOKX 302300
TAFGON
TAF
KGON 302340Z 3100/3124 18009KT P6SM FEW025 SCT040
     FM310100 20005KT P6SM SCT015 SCT040
     FM310800 21005KT 3SM BR BKN010
     FM311500 21009KT P6SM BKN020
     FM311800 18010KT P6SM SCT020 SCT040=



000
FTUS41 KOKX 302300
TAFTEB
TAF
KTEB 302340Z 3100/3124 17007KT P6SM SCT025 BKN040
     FM310100 19005KT P6SM SCT015 BKN035
     FM311000 20006KT P6SM BKN015
     FM311500 20008KT 6SM HZ SCT020 BKN040
     FM311800 20010G16KT P6SM SCT040 SCT080=



000
FTUS41 KOKX 302000 AAA
TAFEWR
TAF AMD
KEWR 302043Z 3021/3124 16008KT P6SM SCT025 BKN040
     FM310100 20006KT P6SM SCT015 BKN035
     FM311000 21008KT P6SM BKN015
     FM311500 21010KT P6SM SCT020 BKN040
     FM311800 21012KT P6SM SCT040 SCT080=



000
FTUS41 KOKX 302000 AAA
TAFSWF
TAF AMD
KSWF 302043Z 3021/3124 20006KT P6SM SCT025 BKN040
     FM310000 VRB04KT P6SM SCT010 BKN035
     FM310600 VRB03KT 5SM BR BKN010
     FM311600 22008KT P6SM SCT020 BKN040
      AMD NOT SKED=



000
FTUS41 KOKX 302000 AAA
TAFBDR
TAF AMD
KBDR 302043Z 3021/3118 18010KT P6SM FEW025 SCT040
     FM310000 20006KT P6SM SCT015 BKN040
     FM310800 20007KT 6SM BR BKN015
     FM311500 21009KT P6SM FEW025 SCT040=



000
FTUS41 KOKX 302000 AAA
TAFTEB
TAF AMD
KTEB 302043Z 3021/3118 17007KT P6SM SCT025 BKN040
     FM310100 19005KT P6SM SCT015 BKN035
     FM311000 20006KT P6SM BKN015
     FM311500 21009KT 6SM HZ SCT020 BKN040=



000
FTUS41 KOKX 302000 AAA
TAFISP
TAF AMD
KISP 302043Z 3021/3118 18010KT P6SM SCT025 SCT035
     FM310000 20007KT P6SM SCT015 BKN035
     FM310800 21007KT 6SM BR BKN015
     FM311600 20012KT P6SM SCT020 SCT040=



000
FTUS41 KOKX 302000 AAA
TAFGON
TAF AMD
KGON 302043Z 3021/3118 18009KT P6SM FEW025 SCT040
     FM310000 20005KT P6SM SCT015 SCT040
     FM310600 21005KT 3SM BR BKN010
     FM311500 21009KT P6SM FEW024 BKN040=



000
FTUS41 KOKX 302000 AAA
TAFJFK
TAF AMD
KJFK 302043Z 3021/3124 17013KT P6SM SCT025 BKN040
     FM310200 20009KT P6SM SCT015 BKN035
     FM311000 20008KT P6SM BKN015
     FM311500 19012KT P6SM SCT020 BKN040
     FM311800 19016KT P6SM SCT040 SCT080=



000
FTUS41 KOKX 302000 AAA
TAFLGA
TAF AMD
KLGA 302043Z 3021/3118 17012KT P6SM SCT025 BKN040
     FM310200 20008KT P6SM SCT015 BKN035
     FM311000 21008KT P6SM BKN015
     FM311500 20011KT P6SM SCT020 BKN040=



000
FTUS41 KOKX 301700
TAFTEB
TAF
KTEB 301736Z 3018/3118 17007KT P6SM SCT025 BKN040
     FM310100 19005KT P6SM SCT015 BKN035
     FM311000 20006KT P6SM BKN015
     FM311500 21009KT 6SM HZ SCT020 BKN040=



000
FTUS41 KOKX 301700
TAFLGA
TAF
KLGA 301736Z 3018/3118 17012KT P6SM SCT025 BKN040
     FM310200 20008KT P6SM SCT015 BKN035
     FM311000 21008KT P6SM BKN015
     FM311500 20011KT P6SM SCT020 BKN040=



000
FTUS41 KOKX 301700
TAFISP
TAF
KISP 301736Z 3018/3118 18010KT P6SM SCT025 SCT035
     FM310000 20007KT P6SM SCT015 BKN035
     FM310800 21007KT 6SM BR BKN015
     FM311600 20012KT P6SM SCT020 SCT040=



000
FTUS41 KOKX 301700
TAFSWF
TAF
KSWF 301736Z 3018/3124 20006KT P6SM SCT025 BKN040
     FM310000 VRB04KT P6SM SCT010 BKN035
     FM310600 VRB03KT 5SM BR BKN010
     FM311600 22008KT P6SM SCT020 BKN040
      AMD NOT SKED=



000
FTUS41 KOKX 301700
TAFBDR
TAF
KBDR 301736Z 3018/3118 18008KT P6SM FEW025 SCT040
     FM310000 20006KT P6SM SCT015 BKN040
     FM310800 20007KT 6SM BR BKN015
     FM311500 21009KT P6SM FEW025 SCT040=



000
FTUS41 KOKX 301700
TAFEWR
TAF
KEWR 301736Z 3018/3124 16008KT P6SM SCT025 BKN040
     FM310100 20006KT P6SM SCT015 BKN035
     FM311000 21008KT P6SM BKN015
     FM311500 21010KT P6SM SCT020 BKN040
     FM311800 21012KT P6SM SCT040 SCT080=



000
FTUS41 KOKX 301700
TAFGON
TAF
KGON 301736Z 3018/3118 18009KT P6SM FEW025 SCT040
     FM310000 20005KT P6SM SCT015 SCT040
     FM310600 21005KT 3SM BR BKN010
     FM311500 21009KT P6SM FEW024 BKN040=



000
FTUS41 KOKX 301700
TAFJFK
TAF
KJFK 301736Z 3018/3124 17013KT P6SM SCT025 BKN040
     FM310200 20009KT P6SM SCT015 BKN035
     FM311000 20008KT P6SM BKN015
     FM311500 19012KT P6SM SCT020 BKN040
     FM311800 19016KT P6SM SCT040 SCT080=



000
FTUS41 KOKX 301400 AAA
TAFISP
TAF AMD
KISP 301433Z 3015/3112 17012KT P6SM SCT035 SCT250
     FM310000 20008KT P6SM FEW020 SCT040 BKN250
     FM311000 20006KT 6SM BR BKN020=



000
FTUS41 KOKX 301400 AAA
TAFJFK
TAF AMD
KJFK 301433Z 3015/3118 18010KT P6SM SCT040 SCT250
     FM301800 18014KT P6SM SCT050 SCT250
     FM310200 19010KT P6SM SCT040 BKN250
     FM310400 20008KT P6SM SCT040 BKN250
     FM311000 20008KT P6SM BKN020
     FM311500 20012KT P6SM SCT020 BKN040 PROB30 3115/3118 -SHRA=



000
FTUS41 KOKX 301400 AAA
TAFTEB
TAF AMD
KTEB 301433Z 3015/3112 19006KT P6SM SCT040 SCT250
     FM301800 18010KT P6SM SCT050 SCT250
     FM310000 19006KT P6SM SCT040 BKN250
     FM311000 19004KT 6SM BR BKN020=



000
FTUS41 KOKX 301400 AAA
TAFBDR
TAF AMD
KBDR 301433Z 3015/3112 17010KT P6SM SCT035 SCT250
     FM310000 20008KT P6SM FEW025 SCT040 BKN250
     FM311000 20006KT 6SM BR BKN020=



000
FTUS41 KOKX 301400 AAA
TAFLGA
TAF AMD
KLGA 301433Z 3015/3112 18010KT P6SM SCT040 SCT250
     FM301800 18012KT P6SM SCT050 SCT250
     FM310100 18010KT P6SM SCT040 BKN250
     FM310300 20008KT P6SM SCT040 BKN250
     FM311000 20008KT P6SM BKN020=



000
FTUS41 KOKX 301400 AAA
TAFGON
TAF AMD
KGON 301433Z 3015/3112 16009KT P6SM SCT025 SCT250
     FM301700 18010KT P6SM SCT035 SCT250
     FM310000 20007KT P6SM FEW020 SCT150 BKN250
     FM311000 21005KT 6SM BR BKN015=



000
FTUS41 KOKX 301400 AAA
TAFEWR
TAF AMD
KEWR 301433Z 3015/3118 19007KT P6SM SCT040 SCT250
     FM301800 17010KT P6SM SCT050 SCT250
     FM310000 19007KT P6SM SCT040 BKN250
     FM310400 21006KT P6SM SCT040 BKN250
     FM311000 21006KT P6SM BKN020
     FM311500 20012KT P6SM SCT020 BKN040 PROB30 3115/3118 -SHRA=



000
FTUS41 KOKX 301100
TAFSWF
TAF
KSWF 301139Z 3012/3118 17004KT P6SM FEW020 SCT250
     FM301400 21008KT P6SM SCT050 SCT250
     FM310400 22005KT P6SM BKN035
     FM310800 22005KT 5SM BR BKN020
     FM311500 20012KT P6SM VCSH BKN020
      AMD NOT SKED=



000
FTUS41 KOKX 301100
TAFISP
TAF
KISP 301139Z 3012/3112 16005KT P6SM SCT025 SCT040 BKN250
      TEMPO 3012/3015 BKN025
     FM301500 18012KT P6SM SCT035 SCT250
     FM310000 20008KT P6SM FEW020 SCT040 BKN250
     FM311000 20006KT 6SM BR BKN020=



000
FTUS41 KOKX 301100
TAFLGA
TAF
KLGA 301139Z 3012/3112 14005KT P6SM SCT040 SCT250
     FM301500 16010KT P6SM SCT040 SCT250
     FM301800 18012KT P6SM SCT050 SCT250
     FM310100 18010KT P6SM SCT040 BKN250
     FM310300 20008KT P6SM SCT040 BKN250
     FM311000 20008KT P6SM BKN020=



000
FTUS41 KOKX 301100
TAFEWR
TAF
KEWR 301139Z 3012/3118 17005KT P6SM SCT040 SCT250
     FM301800 18010KT P6SM SCT050 SCT250
     FM310000 19007KT P6SM SCT040 BKN250
     FM310400 21006KT P6SM SCT040 BKN250
     FM311000 21006KT P6SM BKN020
     FM311500 20012KT P6SM SCT020 BKN040 PROB30 3115/3118 -SHRA=



000
FTUS41 KOKX 301100
TAFGON
TAF
KGON 301139Z 3012/3112 15005KT P6SM SCT025 SCT250
      TEMPO 3013/3016 BKN025
     FM301700 18010KT P6SM SCT035 SCT250
     FM310000 20007KT P6SM FEW020 SCT150 BKN250
     FM311000 21005KT 6SM BR BKN015=



000
FTUS41 KOKX 301100
TAFJFK
TAF
KJFK 301139Z 3012/3118 17005KT P6SM SCT040 SCT250
     FM301500 17010KT P6SM SCT040 SCT250
     FM301800 18014KT P6SM SCT050 SCT250
     FM310200 19010KT P6SM SCT040 BKN250
     FM310400 20008KT P6SM SCT040 BKN250
     FM311000 20008KT P6SM BKN020
     FM311500 20012KT P6SM SCT020 BKN040 PROB30 3115/3118 -SHRA=



000
FTUS41 KOKX 301100
TAFBDR
TAF
KBDR 301139Z 3012/3112 16007KT P6SM SCT030 SCT250
      TEMPO 3013/3015 BKN030
     FM301500 17010KT P6SM SCT040 SCT250
     FM310000 20008KT P6SM FEW025 SCT040 BKN250
     FM311000 20006KT 6SM BR BKN020=



000
FTUS41 KOKX 301100
TAFTEB
TAF
KTEB 301139Z 3012/3112 VRB02KT P6SM FEW040 SCT250
     FM301300 17006KT P6SM SCT040 SCT250
     FM301800 19010KT P6SM SCT050 SCT250
     FM310000 19006KT P6SM SCT040 BKN250
     FM311000 19004KT 6SM BR BKN020=



    US Dept of Commerce
    National Oceanic and Atmospheric Administration
    National Weather Service
    1325 East West Highway
    Silver Spring, MD 20910
    Page Author: NWS Internet Services Team
Disclaimer
Information Quality
Credits
Glossary
Privacy Policy
Freedom of Information Act (FOIA)
About Us
Career Opportunities